Observation data for Fort Lewis CO on 07/10/2018      Previous  Date       Current Mesonet Observations  Soil Data  Daily Summary Page  Observations in Plain Language
KFL1 100501Z 07005KT 18/07 A305 RMK A01 T01770068  RH  049%=      5-min Rain = 0
KFL1 100502Z 06006KT 18/07 A305 RMK A01 T01770067  RH  048%=      5-min Rain = 0
KFL1 100503Z 06005KT 18/07 A305 RMK A01 T01790068  RH  048%=      5-min Rain = 0
KFL1 100504Z 07005KT 18/07 A305 RMK A01 T01810069  RH  048%=      5-min Rain = 0
KFL1 100505Z 06005KT 18/07 A305 RMK A01 T01800068  RH  048%=      5-min Rain = 0
KFL1 100506Z 06005KT 18/07 A305 RMK A01 T01810070  RH  048%=      5-min Rain = 0
KFL1 100507Z 05005KT 18/07 A305 RMK A01 T01810070  RH  048%=      5-min Rain = 0
KFL1 100508Z 06005KT 18/07 A305 RMK A01 T01810071  RH  049%=      5-min Rain = 0
KFL1 100509Z 06005KT 18/07 A305 RMK A01 T01800071  RH  049%=      5-min Rain = 0
KFL1 100510Z 05005KT 18/07 A305 RMK A01 T01800071  RH  049%=      5-min Rain = 0
KFL1 100511Z 05005KT 18/07 A305 RMK A01 T01800071  RH  049%=      5-min Rain = 0
KFL1 100512Z 05006KT 18/07 A305 RMK A01 T01800071  RH  049%=      5-min Rain = 0
KFL1 100513Z 05006KT 18/07 A305 RMK A01 T01790071  RH  049%=      5-min Rain = 0
KFL1 100514Z 05005KT 18/07 A305 RMK A01 T01800072  RH  049%=      5-min Rain = 0
KFL1 100515Z 05006KT 18/07 A305 RMK A01 T01790070  RH  049%=      5-min Rain = 0
KFL1 100516Z 05005KT 18/07 A305 RMK A01 T01800072  RH  049%=      5-min Rain = 0
KFL1 100517Z 05005KT 18/07 A305 RMK A01 T01790071  RH  049%=      5-min Rain = 0
KFL1 100518Z 05005KT 18/07 A305 RMK A01 T01790072  RH  050%=      5-min Rain = 0
KFL1 100519Z 05005KT 18/07 A305 RMK A01 T01770072  RH  050%=      5-min Rain = 0
KFL1 100520Z 06005KT 18/07 A305 RMK A01 T01770073  RH  051%=      5-min Rain = 0
KFL1 100521Z 06005KT 18/07 A305 RMK A01 T01770073  RH  051%=      5-min Rain = 0
KFL1 100522Z 05006KT 18/07 A305 RMK A01 T01750072  RH  051%=      5-min Rain = 0
KFL1 100523Z 06006KT 18/07 A305 RMK A01 T01750073  RH  051%=      5-min Rain = 0
KFL1 100524Z 05005KT 18/07 A305 RMK A01 T01750073  RH  051%=      5-min Rain = 0
KFL1 100525Z 05006KT 18/07 A305 RMK A01 T01750073  RH  051%=      5-min Rain = 0
KFL1 100526Z 05006KT 18/07 A305 RMK A01 T01760074  RH  051%=      5-min Rain = 0
KFL1 100527Z 05006KT 18/07 A305 RMK A01 T01750074  RH  051%=      5-min Rain = 0
KFL1 100528Z 05006KT 18/07 A305 RMK A01 T01750074  RH  051%=      5-min Rain = 0
KFL1 100529Z 05007KT 18/07 A305 RMK A01 T01750073  RH  051%=      5-min Rain = 0
KFL1 100530Z 04006KT 18/07 A305 RMK A01 T01760073  RH  051%=      5-min Rain = 0
KFL1 100531Z 04006KT 17/07 A305 RMK A01 T01740071  RH  051%=      5-min Rain = 0
KFL1 100532Z 03006KT 18/08 A305 RMK A01 T01760079  RH  053%=      5-min Rain = 0
KFL1 100533Z 03008KT 17/08 A305 RMK A01 T01690079  RH  056%=      5-min Rain = 0
KFL1 100534Z 03007KT 16/08 A305 RMK A01 T01630079  RH  057%=      5-min Rain = 0
KFL1 100535Z 04007KT 16/08 A305 RMK A01 T01620080  RH  058%=      5-min Rain = 0
KFL1 100536Z 03007KT 16/07 A305 RMK A01 T01620074  RH  056%=      5-min Rain = 0
KFL1 100537Z 04007KT 16/07 A305 RMK A01 T01640071  RH  054%=      5-min Rain = 0
KFL1 100538Z 04008KT 17/07 A305 RMK A01 T01690071  RH  053%=      5-min Rain = 0
KFL1 100539Z 04008KT 17/07 A305 RMK A01 T01720073  RH  052%=      5-min Rain = 0
KFL1 100540Z 04007KT 17/07 A3051 RMK A01 T01720073  RH  052%=      5-min Rain = 0
KFL1 100541Z 04008KT 17/08 A3051 RMK A01 T01710075  RH  053%=      5-min Rain = 0
KFL1 100542Z 04008KT 17/08 A305 RMK A01 T01680075  RH  054%=      5-min Rain = 0
KFL1 100543Z 04008KT 17/07 A305 RMK A01 T01660074  RH  055%=      5-min Rain = 0
KFL1 100544Z 04008KT 16/07 A305 RMK A01 T01630073  RH  055%=      5-min Rain = 0
KFL1 100545Z 04008KT 16/07 A305 RMK A01 T01630073  RH  055%=      5-min Rain = 0
KFL1 100546Z 04007KT 16/08 A3051 RMK A01 T01630075  RH  056%=      5-min Rain = 0
KFL1 100547Z 04007KT 16/07 A3051 RMK A01 T01610074  RH  056%=      5-min Rain = 0
KFL1 100548Z 04007KT 16/08 A3051 RMK A01 T01610075  RH  057%=      5-min Rain = 0
KFL1 100549Z 05008KT 16/08 A3051 RMK A01 T01600075  RH  057%=      5-min Rain = 0
KFL1 100550Z 05007KT 16/08 A3051 RMK A01 T01610076  RH  057%=      5-min Rain = 0
KFL1 100551Z 04009KT 16/08 A3051 RMK A01 T01610078  RH  058%=      5-min Rain = 0
KFL1 100552Z 04008KT 16/08 A3051 RMK A01 T01580076  RH  058%=      5-min Rain = 0
KFL1 100553Z 04008KT 16/08 A3051 RMK A01 T01580075  RH  058%=      5-min Rain = 0
KFL1 100554Z 05008KT 16/08 A3051 RMK A01 T01590075  RH  057%=      5-min Rain = 0
KFL1 100555Z 04007KT 16/07 A3051 RMK A01 T01590074  RH  057%=      5-min Rain = 0
KFL1 100556Z 04009KT 16/07 A305 RMK A01 T01590073  RH  056%=      5-min Rain = 0
KFL1 100557Z 04008KT 16/07 A305 RMK A01 T01630073  RH  055%=      5-min Rain = 0
KFL1 100558Z 04007KT 17/07 A3051 RMK A01 T01650072  RH  054%=      5-min Rain = 0
KFL1 100559Z 05008KT 17/07 A3051 RMK A01 T01670073  RH  054%=      5-min Rain = 0
KFL1 100600Z 05007KT 17/07 A3051 RMK A01 T01670073  RH  054%=      5-min Rain = 0
KFL1 100601Z 05007KT 17/07 A3051 RMK A01 T01670074  RH  054%=      5-min Rain = 0
KFL1 100602Z 05005KT 17/08 A3051 RMK A01 T01660075  RH  055%=      5-min Rain = 0
KFL1 100603Z 05006KT 16/08 A3051 RMK A01 T01640075  RH  056%=      5-min Rain = 0
KFL1 100604Z 05007KT 16/08 A3051 RMK A01 T01630075  RH  056%=      5-min Rain = 0
KFL1 100605Z 05006KT 16/08 A3051 RMK A01 T01630075  RH  056%=      5-min Rain = 0
KFL1 100606Z 05006KT 16/07 A3051 RMK A01 T01630074  RH  055%=      5-min Rain = 0
KFL1 100607Z 05006KT 16/07 A3051 RMK A01 T01630072  RH  055%=      5-min Rain = 0
KFL1 100608Z 04007KT 17/07 A3051 RMK A01 T01650073  RH  054%=      5-min Rain = 0
KFL1 100609Z 04007KT 17/07 A3051 RMK A01 T01660073  RH  054%=      5-min Rain = 0
KFL1 100610Z 04007KT 17/07 A305 RMK A01 T01670073  RH  054%=      5-min Rain = 0
KFL1 100611Z 04007KT 17/07 A305 RMK A01 T01660073  RH  054%=      5-min Rain = 0
KFL1 100612Z 04007KT 17/07 A305 RMK A01 T01670073  RH  054%=      5-min Rain = 0
KFL1 100613Z 04007KT 17/07 A305 RMK A01 T01660071  RH  053%=      5-min Rain = 0
KFL1 100614Z 04007KT 17/07 A305 RMK A01 T01670072  RH  053%=      5-min Rain = 0
KFL1 100615Z 04007KT 17/07 A305 RMK A01 T01670073  RH  054%=      5-min Rain = 0
KFL1 100616Z 04007KT 17/07 A305 RMK A01 T01670072  RH  054%=      5-min Rain = 0
KFL1 100617Z 03008KT 17/07 A305 RMK A01 T01660072  RH  054%=      5-min Rain = 0
KFL1 100618Z 03007KT 17/07 A305 RMK A01 T01660073  RH  054%=      5-min Rain = 0
KFL1 100619Z 04006KT 17/07 A3051 RMK A01 T01660074  RH  054%=      5-min Rain = 0
KFL1 100620Z 04007KT 16/07 A3051 RMK A01 T01640072  RH  054%=      5-min Rain = 0
KFL1 100621Z 04007KT 17/07 A3051 RMK A01 T01650074  RH  055%=      5-min Rain = 0
KFL1 100622Z 04007KT 16/07 A3051 RMK A01 T01630073  RH  055%=      5-min Rain = 0
KFL1 100623Z 03006KT 16/07 A3051 RMK A01 T01630073  RH  055%=      5-min Rain = 0
KFL1 100624Z 03006KT 16/07 A3051 RMK A01 T01620073  RH  056%=      5-min Rain = 0
KFL1 100625Z 04006KT 16/07 A3051 RMK A01 T01620073  RH  056%=      5-min Rain = 0
KFL1 100626Z 03006KT 16/07 A3051 RMK A01 T01610073  RH  056%=      5-min Rain = 0
KFL1 100627Z 03006KT 16/07 A3051 RMK A01 T01590072  RH  056%=      5-min Rain = 0
KFL1 100628Z 03007KT 16/07 A3051 RMK A01 T01600073  RH  056%=      5-min Rain = 0
KFL1 100629Z 03007KT 16/07 A3051 RMK A01 T01590072  RH  056%=      5-min Rain = 0
KFL1 100630Z 03008KT 16/07 A3051 RMK A01 T01600072  RH  056%=      5-min Rain = 0
KFL1 100631Z 04007KT 16/07 A3051 RMK A01 T01620071  RH  055%=      5-min Rain = 0
KFL1 100632Z 04006KT 16/07 A3051 RMK A01 T01610070  RH  055%=      5-min Rain = 0
KFL1 100633Z 05005KT 16/08 A3051 RMK A01 T01640076  RH  056%=      5-min Rain = 0
KFL1 100634Z 05006KT 16/08 A3051 RMK A01 T01600076  RH  058%=      5-min Rain = 0
KFL1 100635Z 04007KT 16/08 A3051 RMK A01 T01570077  RH  059%=      5-min Rain = 0
KFL1 100636Z 04007KT 15/08 A3051 RMK A01 T01540077  RH  060%=      5-min Rain = 0
KFL1 100637Z 04008KT 15/08 A3051 RMK A01 T01500075  RH  061%=      5-min Rain = 0
KFL1 100638Z 04008KT 15/08 A305 RMK A01 T01490075  RH  061%=      5-min Rain = 0
KFL1 100639Z 04008KT 15/08 A3051 RMK A01 T01480076  RH  062%=      5-min Rain = 0
KFL1 100640Z 05008KT 15/08 A3051 RMK A01 T01470075  RH  062%=      5-min Rain = 0
KFL1 100641Z 04008KT 15/08 A3051 RMK A01 T01470075  RH  062%=      5-min Rain = 0
KFL1 100642Z 04008KT 15/08 A3051 RMK A01 T01460076  RH  062%=      5-min Rain = 0
KFL1 100643Z 04009KT 15/08 A3051 RMK A01 T01450075  RH  062%=      5-min Rain = 0
KFL1 100644Z 04009KT 15/08 A3051 RMK A01 T01460076  RH  062%=      5-min Rain = 0
KFL1 100645Z 04008KT 15/07 A3051 RMK A01 T01450074  RH  062%=      5-min Rain = 0
KFL1 100646Z 04008KT 15/07 A3051 RMK A01 T01450074  RH  063%=      5-min Rain = 0
KFL1 100647Z 04007KT 15/08 A3051 RMK A01 T01450075  RH  063%=      5-min Rain = 0
KFL1 100648Z 04007KT 14/08 A3051 RMK A01 T01440076  RH  063%=      5-min Rain = 0
KFL1 100649Z 04008KT 14/08 A3051 RMK A01 T01440076  RH  064%=      5-min Rain = 0
KFL1 100650Z 04007KT 14/08 A3051 RMK A01 T01420075  RH  064%=      5-min Rain = 0
KFL1 100651Z 03008KT 14/08 A3051 RMK A01 T01430076  RH  064%=      5-min Rain = 0
KFL1 100652Z 04008KT 14/08 A3051 RMK A01 T01420076  RH  064%=      5-min Rain = 0
KFL1 100653Z 04009KT 14/08 A3051 RMK A01 T01430076  RH  064%=      5-min Rain = 0
KFL1 100654Z 04008KT 14/08 A3051 RMK A01 T01430075  RH  064%=      5-min Rain = 0
KFL1 100655Z 04008KT 14/07 A3051 RMK A01 T01440074  RH  063%=      5-min Rain = 0
KFL1 100656Z 04008KT 14/07 A3051 RMK A01 T01440073  RH  063%=      5-min Rain = 0
KFL1 100657Z 04007KT 15/07 A3051 RMK A01 T01460073  RH  062%=      5-min Rain = 0
KFL1 100658Z 04007KT 15/07 A3051 RMK A01 T01460074  RH  062%=      5-min Rain = 0
KFL1 100659Z 04006KT 15/07 A3051 RMK A01 T01460074  RH  062%=      5-min Rain = 0
KFL1 100700Z 05006KT 15/07 A3051 RMK A01 T01460073  RH  062%=      5-min Rain = 0
KFL1 100701Z 04006KT 15/07 A3051 RMK A01 T01470073  RH  061%=      5-min Rain = 0
KFL1 100702Z 05005KT 15/07 A3051 RMK A01 T01470073  RH  061%=      5-min Rain = 0
KFL1 100703Z 05005KT 15/07 A3051 RMK A01 T01470073  RH  061%=      5-min Rain = 0
KFL1 100704Z 04006KT 15/07 A3051 RMK A01 T01460071  RH  061%=      5-min Rain = 0
KFL1 100705Z 04007KT 15/07 A3051 RMK A01 T01470070  RH  060%=      5-min Rain = 0
KFL1 100706Z 04007KT 15/07 A3051 RMK A01 T01490073  RH  060%=      5-min Rain = 0
KFL1 100707Z 04007KT 15/07 A3051 RMK A01 T01490072  RH  060%=      5-min Rain = 0
KFL1 100708Z 04007KT 15/07 A3051 RMK A01 T01490072  RH  060%=      5-min Rain = 0
KFL1 100709Z 05007KT 15/07 A3051 RMK A01 T01480070  RH  060%=      5-min Rain = 0
KFL1 100710Z 05005KT 15/07 A3051 RMK A01 T01500071  RH  059%=      5-min Rain = 0
KFL1 100711Z 05005KT 15/07 A3051 RMK A01 T01500071  RH  059%=      5-min Rain = 0
KFL1 100712Z 04006KT 15/07 A3051 RMK A01 T01490069  RH  059%=      5-min Rain = 0
KFL1 100713Z 04007KT 15/07 A3051 RMK A01 T01510069  RH  058%=      5-min Rain = 0
KFL1 100714Z 04006KT 15/07 A3051 RMK A01 T01520070  RH  058%=      5-min Rain = 0
KFL1 100715Z 04007KT 15/07 A3051 RMK A01 T01530073  RH  059%=      5-min Rain = 0
KFL1 100716Z 04007KT 15/07 A3051 RMK A01 T01520072  RH  059%=      5-min Rain = 0
KFL1 100717Z 04006KT 15/07 A3051 RMK A01 T01530072  RH  058%=      5-min Rain = 0
KFL1 100718Z 04007KT 15/07 A3051 RMK A01 T01520072  RH  059%=      5-min Rain = 0
KFL1 100719Z 04006KT 15/07 A3051 RMK A01 T01510071  RH  059%=      5-min Rain = 0
KFL1 100720Z 04008KT 15/07 A3051 RMK A01 T01520071  RH  058%=      5-min Rain = 0
KFL1 100721Z 04008KT 15/07 A3051 RMK A01 T01510070  RH  058%=      5-min Rain = 0
KFL1 100722Z 03008KT 15/07 A3051 RMK A01 T01520071  RH  058%=      5-min Rain = 0
KFL1 100723Z 04008KT 15/07 A3051 RMK A01 T01520071  RH  058%=      5-min Rain = 0
KFL1 100724Z 04008KT 15/07 A3051 RMK A01 T01510070  RH  058%=      5-min Rain = 0
KFL1 100725Z 04008KT 15/07 A3051 RMK A01 T01520069  RH  058%=      5-min Rain = 0
KFL1 100726Z 04008KT 15/07 A3051 RMK A01 T01530069  RH  057%=      5-min Rain = 0
KFL1 100727Z 04008KT 15/07 A3051 RMK A01 T01540071  RH  057%=      5-min Rain = 0
KFL1 100728Z 04008KT 15/07 A3051 RMK A01 T01530071  RH  058%=      5-min Rain = 0
KFL1 100729Z 03007KT 15/07 A3051 RMK A01 T01520070  RH  058%=      5-min Rain = 0
KFL1 100730Z 03007KT 15/07 A3051 RMK A01 T01520069  RH  058%=      5-min Rain = 0
KFL1 100731Z 04008KT 15/07 A3051 RMK A01 T01530070  RH  058%=      5-min Rain = 0
KFL1 100732Z 04006KT 15/07 A3051 RMK A01 T01520070  RH  058%=      5-min Rain = 0
KFL1 100733Z 04006KT 15/07 A3051 RMK A01 T01520070  RH  058%=      5-min Rain = 0
KFL1 100734Z 04005KT 15/07 A3051 RMK A01 T01520070  RH  058%=      5-min Rain = 0
KFL1 100735Z 05006KT 15/07 A3051 RMK A01 T01510070  RH  058%=      5-min Rain = 0
KFL1 100736Z 04007KT 15/07 A3051 RMK A01 T01510071  RH  059%=      5-min Rain = 0
KFL1 100737Z 04007KT 15/07 A3051 RMK A01 T01500071  RH  059%=      5-min Rain = 0
KFL1 100738Z 03006KT 15/07 A3051 RMK A01 T01500070  RH  059%=      5-min Rain = 0
KFL1 100739Z 03006KT 15/07 A3051 RMK A01 T01510070  RH  058%=      5-min Rain = 0
KFL1 100740Z 03006KT 15/07 A3051 RMK A01 T01520070  RH  058%=      5-min Rain = 0
KFL1 100741Z 04006KT 15/07 A3051 RMK A01 T01530069  RH  057%=      5-min Rain = 0
KFL1 100742Z 04006KT 15/07 A3051 RMK A01 T01530071  RH  058%=      5-min Rain = 0
KFL1 100743Z 05005KT 15/07 A3051 RMK A01 T01520072  RH  059%=      5-min Rain = 0
KFL1 100744Z 04005KT 15/07 A3052 RMK A01 T01500072  RH  059%=      5-min Rain = 0
KFL1 100745Z 04004KT 15/07 A3052 RMK A01 T01490073  RH  061%=      5-min Rain = 0
KFL1 100746Z 04005KT 15/07 A3052 RMK A01 T01460073  RH  061%=      5-min Rain = 0
KFL1 100747Z 04006KT 15/07 A3052 RMK A01 T01460073  RH  062%=      5-min Rain = 0
KFL1 100748Z 04007KT 14/07 A3052 RMK A01 T01440072  RH  062%=      5-min Rain = 0
KFL1 100749Z 04008KT 14/07 A3052 RMK A01 T01430072  RH  062%=      5-min Rain = 0
KFL1 100750Z 04008KT 14/07 A3052 RMK A01 T01440073  RH  062%=      5-min Rain = 0
KFL1 100751Z 05006KT 14/07 A3052 RMK A01 T01440073  RH  062%=      5-min Rain = 0
KFL1 100752Z 05006KT 14/07 A3052 RMK A01 T01440070  RH  061%=      5-min Rain = 0
KFL1 100753Z 05006KT 15/07 A3052 RMK A01 T01460068  RH  060%=      5-min Rain = 0
KFL1 100754Z 04006KT 15/07 A3052 RMK A01 T01480070  RH  059%=      5-min Rain = 0
KFL1 100755Z 04006KT 15/07 A3052 RMK A01 T01490073  RH  060%=      5-min Rain = 0
KFL1 100756Z 04007KT 15/07 A3052 RMK A01 T01470074  RH  061%=      5-min Rain = 0
KFL1 100757Z 04007KT 15/07 A3052 RMK A01 T01460072  RH  061%=      5-min Rain = 0
KFL1 100758Z 04007KT 15/07 A3052 RMK A01 T01460071  RH  061%=      5-min Rain = 0
KFL1 100759Z 04007KT 15/07 A3052 RMK A01 T01460071  RH  061%=      5-min Rain = 0
KFL1 100800Z 04007KT 15/07 A3052 RMK A01 T01460070  RH  060%=      5-min Rain = 0
KFL1 100801Z 04006KT 15/07 A3052 RMK A01 T01480072  RH  060%=      5-min Rain = 0
KFL1 100802Z 04006KT 15/07 A3052 RMK A01 T01470070  RH  060%=      5-min Rain = 0
KFL1 100803Z 05005KT 15/07 A3052 RMK A01 T01480070  RH  059%=      5-min Rain = 0
KFL1 100804Z 05006KT 15/07 A3052 RMK A01 T01480070  RH  060%=      5-min Rain = 0
KFL1 100805Z 05006KT 15/07 A3052 RMK A01 T01470070  RH  060%=      5-min Rain = 0
KFL1 100806Z 05006KT 15/07 A3052 RMK A01 T01470070  RH  060%=      5-min Rain = 0
KFL1 100807Z 05006KT 15/07 A3052 RMK A01 T01480068  RH  059%=      5-min Rain = 0
KFL1 100808Z 05007KT 15/07 A3052 RMK A01 T01490067  RH  058%=      5-min Rain = 0
KFL1 100809Z 04007KT 15/07 A3052 RMK A01 T01510067  RH  057%=      5-min Rain = 0
KFL1 100810Z 05006KT 15/07 A3052 RMK A01 T01520067  RH  057%=      5-min Rain = 0
KFL1 100811Z 05007KT 15/07 A3052 RMK A01 T01530068  RH  057%=      5-min Rain = 0
KFL1 100812Z 04006KT 15/07 A3052 RMK A01 T01520068  RH  057%=      5-min Rain = 0
KFL1 100813Z 05006KT 15/07 A3052 RMK A01 T01520069  RH  057%=      5-min Rain = 0
KFL1 100814Z 04006KT 15/07 A3052 RMK A01 T01510068  RH  057%=      5-min Rain = 0
KFL1 100815Z 05006KT 15/07 A3052 RMK A01 T01520068  RH  057%=      5-min Rain = 0
KFL1 100816Z 04006KT 15/07 A3052 RMK A01 T01530069  RH  057%=      5-min Rain = 0
KFL1 100817Z 05006KT 15/07 A3052 RMK A01 T01520069  RH  058%=      5-min Rain = 0
KFL1 100818Z 05005KT 15/07 A3052 RMK A01 T01520071  RH  059%=      5-min Rain = 0
KFL1 100819Z 04005KT 15/07 A3052 RMK A01 T01500071  RH  059%=      5-min Rain = 0
KFL1 100820Z 04006KT 15/07 A3052 RMK A01 T01490070  RH  059%=      5-min Rain = 0
KFL1 100821Z 04006KT 15/07 A3052 RMK A01 T01490069  RH  059%=      5-min Rain = 0
KFL1 100822Z 04006KT 15/07 A3052 RMK A01 T01500069  RH  058%=      5-min Rain = 0
KFL1 100823Z 04006KT 15/07 A3052 RMK A01 T01500069  RH  058%=      5-min Rain = 0
KFL1 100824Z 04007KT 15/07 A3052 RMK A01 T01500069  RH  059%=      5-min Rain = 0
KFL1 100825Z 04007KT 15/07 A3052 RMK A01 T01500070  RH  059%=      5-min Rain = 0
KFL1 100826Z 03006KT 15/07 A3052 RMK A01 T01500068  RH  058%=      5-min Rain = 0
KFL1 100827Z 03006KT 15/07 A3052 RMK A01 T01510070  RH  058%=      5-min Rain = 0
KFL1 100828Z 04006KT 15/07 A3052 RMK A01 T01510071  RH  059%=      5-min Rain = 0
KFL1 100829Z 03006KT 15/07 A3052 RMK A01 T01500070  RH  059%=      5-min Rain = 0
KFL1 100830Z 04007KT 15/07 A3052 RMK A01 T01500069  RH  059%=      5-min Rain = 0
KFL1 100831Z 04007KT 15/07 A3052 RMK A01 T01510069  RH  058%=      5-min Rain = 0
KFL1 100832Z 04006KT 15/07 A3052 RMK A01 T01520069  RH  057%=      5-min Rain = 0
KFL1 100833Z 04007KT 15/07 A3052 RMK A01 T01530068  RH  057%=      5-min Rain = 0
KFL1 100834Z 03007KT 15/07 A3052 RMK A01 T01540069  RH  057%=      5-min Rain = 0
KFL1 100835Z 04007KT 16/07 A3052 RMK A01 T01560070  RH  057%=      5-min Rain = 0
KFL1 100836Z 04008KT 16/07 A3052 RMK A01 T01560069  RH  056%=      5-min Rain = 0
KFL1 100837Z 03007KT 16/07 A3052 RMK A01 T01570070  RH  056%=      5-min Rain = 0
KFL1 100838Z 02006KT 16/07 A3052 RMK A01 T01560070  RH  056%=      5-min Rain = 0
KFL1 100839Z 03008KT 16/07 A3052 RMK A01 T01560073  RH  057%=      5-min Rain = 0
KFL1 100840Z 03008KT 16/07 A3052 RMK A01 T01550072  RH  058%=      5-min Rain = 0
KFL1 100841Z 04008KT 16/07 A3053 RMK A01 T01560069  RH  056%=      5-min Rain = 0
KFL1 100842Z 03006KT 16/07 A3053 RMK A01 T01590069  RH  055%=      5-min Rain = 0
KFL1 100843Z 04005KT 16/07 A3053 RMK A01 T01610070  RH  055%=      5-min Rain = 0
KFL1 100844Z 04006KT 16/07 A3053 RMK A01 T01610071  RH  055%=      5-min Rain = 0
KFL1 100845Z 04006KT 16/07 A3053 RMK A01 T01600072  RH  056%=      5-min Rain = 0
KFL1 100846Z 04006KT 16/07 A3053 RMK A01 T01580073  RH  057%=      5-min Rain = 0
KFL1 100847Z 03006KT 16/07 A3053 RMK A01 T01570074  RH  058%=      5-min Rain = 0
KFL1 100848Z 03005KT 16/07 A3053 RMK A01 T01550072  RH  058%=      5-min Rain = 0
KFL1 100849Z 03006KT 16/07 A3053 RMK A01 T01560073  RH  058%=      5-min Rain = 0
KFL1 100850Z 03006KT 16/07 A3053 RMK A01 T01550072  RH  058%=      5-min Rain = 0
KFL1 100851Z 03008KT 16/07 A3053 RMK A01 T01550072  RH  058%=      5-min Rain = 0
KFL1 100852Z 03008KT 16/07 A3052 RMK A01 T01550073  RH  058%=      5-min Rain = 0
KFL1 100853Z 03007KT 16/07 A3053 RMK A01 T01560074  RH  058%=      5-min Rain = 0
KFL1 100854Z 04008KT 16/07 A3053 RMK A01 T01550071  RH  057%=      5-min Rain = 0
KFL1 100855Z 03007KT 16/07 A3053 RMK A01 T01580071  RH  056%=      5-min Rain = 0
KFL1 100856Z 03007KT 16/07 A3053 RMK A01 T01610072  RH  056%=      5-min Rain = 0
KFL1 100857Z 04006KT 16/07 A3053 RMK A01 T01610071  RH  055%=      5-min Rain = 0
KFL1 100858Z 04004KT 16/07 A3053 RMK A01 T01610072  RH  055%=      5-min Rain = 0
KFL1 100859Z 05006KT 16/07 A3053 RMK A01 T01580074  RH  057%=      5-min Rain = 0
KFL1 100900Z 04007KT 16/08 A3053 RMK A01 T01560078  RH  060%=      5-min Rain = 0
KFL1 100901Z 04007KT 15/08 A3053 RMK A01 T01500076  RH  062%=      5-min Rain = 0
KFL1 100902Z 04007KT 15/08 A3052 RMK A01 T01470076  RH  062%=      5-min Rain = 0
KFL1 100903Z 03007KT 15/08 A3052 RMK A01 T01470076  RH  062%=      5-min Rain = 0
KFL1 100904Z 03006KT 15/08 A3052 RMK A01 T01450075  RH  063%=      5-min Rain = 0
KFL1 100905Z 03006KT 15/08 A3052 RMK A01 T01450075  RH  063%=      5-min Rain = 0
KFL1 100906Z 03007KT 15/07 A3052 RMK A01 T01460074  RH  062%=      5-min Rain = 0
KFL1 100907Z 03008KT 15/07 A3052 RMK A01 T01470074  RH  061%=      5-min Rain = 0
KFL1 100908Z 03007KT 15/07 A3052 RMK A01 T01490073  RH  060%=      5-min Rain = 0
KFL1 100909Z 05005KT 15/07 A3052 RMK A01 T01520074  RH  059%=      5-min Rain = 0
KFL1 100910Z 05006KT 15/07 A3052 RMK A01 T01530074  RH  059%=      5-min Rain = 0
KFL1 100911Z 04007KT 15/08 A3052 RMK A01 T01540075  RH  059%=      5-min Rain = 0
KFL1 100912Z 03007KT 15/07 A3052 RMK A01 T01520073  RH  059%=      5-min Rain = 0
KFL1 100913Z 04007KT 15/07 A3052 RMK A01 T01530074  RH  059%=      5-min Rain = 0
KFL1 100914Z 03007KT 15/07 A3052 RMK A01 T01520073  RH  059%=      5-min Rain = 0
KFL1 100915Z 04007KT 15/08 A3052 RMK A01 T01530075  RH  060%=      5-min Rain = 0
KFL1 100916Z 04006KT 15/08 A3052 RMK A01 T01520077  RH  061%=      5-min Rain = 0
KFL1 100917Z 03007KT 15/08 A3053 RMK A01 T01490076  RH  062%=      5-min Rain = 0
KFL1 100918Z 04006KT 15/08 A3052 RMK A01 T01470077  RH  063%=      5-min Rain = 0
KFL1 100919Z 03007KT 15/08 A3052 RMK A01 T01460077  RH  063%=      5-min Rain = 0
KFL1 100920Z 04008KT 15/08 A3052 RMK A01 T01450077  RH  064%=      5-min Rain = 0
KFL1 100921Z 03007KT 15/07 A3052 RMK A01 T01450073  RH  062%=      5-min Rain = 0
KFL1 100922Z 03006KT 15/07 A3052 RMK A01 T01500074  RH  060%=      5-min Rain = 0
KFL1 100923Z 03007KT 15/07 A3052 RMK A01 T01520073  RH  059%=      5-min Rain = 0
KFL1 100924Z 03008KT 15/07 A3052 RMK A01 T01520073  RH  059%=      5-min Rain = 0
KFL1 100925Z 04007KT 15/07 A3052 RMK A01 T01530074  RH  059%=      5-min Rain = 0
KFL1 100926Z 04007KT 15/08 A3052 RMK A01 T01540075  RH  059%=      5-min Rain = 0
KFL1 100927Z 04008KT 15/07 A3052 RMK A01 T01520074  RH  060%=      5-min Rain = 0
KFL1 100928Z 04007KT 15/08 A3052 RMK A01 T01510075  RH  060%=      5-min Rain = 0
KFL1 100929Z 04007KT 15/08 A3052 RMK A01 T01490075  RH  061%=      5-min Rain = 0
KFL1 100930Z 04007KT 15/08 A3052 RMK A01 T01500077  RH  062%=      5-min Rain = 0
KFL1 100931Z 04007KT 15/08 A3052 RMK A01 T01460075  RH  063%=      5-min Rain = 0
KFL1 100932Z 04006KT 15/08 A3052 RMK A01 T01470077  RH  063%=      5-min Rain = 0
KFL1 100933Z 04006KT 15/08 A3052 RMK A01 T01450078  RH  064%=      5-min Rain = 0
KFL1 100934Z 04007KT 14/08 A3052 RMK A01 T01430078  RH  065%=      5-min Rain = 0
KFL1 100935Z 04007KT 14/08 A3052 RMK A01 T01430079  RH  065%=      5-min Rain = 0
KFL1 100936Z 04008KT 14/08 A3053 RMK A01 T01410078  RH  065%=      5-min Rain = 0
KFL1 100937Z 04007KT 14/08 A3053 RMK A01 T01420078  RH  066%=      5-min Rain = 0
KFL1 100938Z 04006KT 14/08 A3053 RMK A01 T01410078  RH  066%=      5-min Rain = 0
KFL1 100939Z 04007KT 14/08 A3053 RMK A01 T01410078  RH  066%=      5-min Rain = 0
KFL1 100940Z 04007KT 14/08 A3053 RMK A01 T01410080  RH  066%=      5-min Rain = 0
KFL1 100941Z 04007KT 14/08 A3053 RMK A01 T01400080  RH  067%=      5-min Rain = 0
KFL1 100942Z 04006KT 14/08 A3053 RMK A01 T01400081  RH  067%=      5-min Rain = 0
KFL1 100943Z 05004KT 14/08 A3052 RMK A01 T01390080  RH  068%=      5-min Rain = 0
KFL1 100944Z 05004KT 14/08 A3053 RMK A01 T01370080  RH  068%=      5-min Rain = 0
KFL1 100945Z 05006KT 13/08 A3053 RMK A01 T01330079  RH  069%=      5-min Rain = 0
KFL1 100946Z 04007KT 13/08 A3052 RMK A01 T01330081  RH  071%=      5-min Rain = 0
KFL1 100947Z 04007KT 13/08 A3052 RMK A01 T01300079  RH  071%=      5-min Rain = 0
KFL1 100948Z 04008KT 13/08 A3052 RMK A01 T01300080  RH  072%=      5-min Rain = 0
KFL1 100949Z 04009KT 13/08 A3052 RMK A01 T01310081  RH  072%=      5-min Rain = 0
KFL1 100950Z 03008KT 13/08 A3052 RMK A01 T01320081  RH  071%=      5-min Rain = 0
KFL1 100951Z 03008KT 14/08 A3052 RMK A01 T01350081  RH  070%=      5-min Rain = 0
KFL1 100952Z 04009KT 14/08 A3052 RMK A01 T01370079  RH  068%=      5-min Rain = 0
KFL1 100953Z 04009KT 14/08 A3052 RMK A01 T01400077  RH  066%=      5-min Rain = 0
KFL1 100954Z 03008KT 14/08 A3052 RMK A01 T01440077  RH  064%=      5-min Rain = 0
KFL1 100955Z 04008KT 15/08 A3052 RMK A01 T01460077  RH  063%=      5-min Rain = 0
KFL1 100956Z 03008KT 15/08 A3052 RMK A01 T01470076  RH  062%=      5-min Rain = 0
KFL1 100957Z 03008KT 15/08 A3052 RMK A01 T01480076  RH  062%=      5-min Rain = 0
KFL1 100958Z 04007KT 15/08 A3052 RMK A01 T01480077  RH  062%=      5-min Rain = 0
KFL1 100959Z 04007KT 15/08 A3053 RMK A01 T01480077  RH  062%=      5-min Rain = 0
KFL1 101000Z 04007KT 15/08 A3053 RMK A01 T01470078  RH  063%=      5-min Rain = 0
KFL1 101001Z 04008KT 15/08 A3053 RMK A01 T01450079  RH  064%=      5-min Rain = 0
KFL1 101002Z 04007KT 14/08 A3053 RMK A01 T01430079  RH  065%=      5-min Rain = 0
KFL1 101003Z 03008KT 14/08 A3053 RMK A01 T01420079  RH  066%=      5-min Rain = 0
KFL1 101004Z 04008KT 14/08 A3053 RMK A01 T01390079  RH  067%=      5-min Rain = 0
KFL1 101005Z 04008KT 14/08 A3053 RMK A01 T01390079  RH  067%=      5-min Rain = 0
KFL1 101006Z 04008KT 14/08 A3053 RMK A01 T01370077  RH  067%=      5-min Rain = 0
KFL1 101007Z 04008KT 14/08 A3052 RMK A01 T01370078  RH  068%=      5-min Rain = 0
KFL1 101008Z 04008KT 14/08 A3052 RMK A01 T01350078  RH  068%=      5-min Rain = 0
KFL1 101009Z 04007KT 14/08 A3052 RMK A01 T01350078  RH  069%=      5-min Rain = 0
KFL1 101010Z 04009KT 13/08 A3052 RMK A01 T01340078  RH  069%=      5-min Rain = 0
KFL1 101011Z 04008KT 13/08 A3052 RMK A01 T01340077  RH  069%=      5-min Rain = 0
KFL1 101012Z 03008KT 13/08 A3052 RMK A01 T01340078  RH  068%=      5-min Rain = 0
KFL1 101013Z 04008KT 14/08 A3052 RMK A01 T01350077  RH  068%=      5-min Rain = 0
KFL1 101014Z 04009KT 14/08 A3052 RMK A01 T01370077  RH  067%=      5-min Rain = 0
KFL1 101015Z 04008KT 14/08 A3052 RMK A01 T01370078  RH  067%=      5-min Rain = 0
KFL1 101016Z 04009KT 14/08 A3052 RMK A01 T01380078  RH  067%=      5-min Rain = 0
KFL1 101017Z 04008KT 14/08 A3052 RMK A01 T01370077  RH  067%=      5-min Rain = 0
KFL1 101018Z 04008KT 14/08 A3052 RMK A01 T01390079  RH  067%=      5-min Rain = 0
KFL1 101019Z 04008KT 14/08 A3052 RMK A01 T01370078  RH  068%=      5-min Rain = 0
KFL1 101020Z 04009KT 14/08 A3052 RMK A01 T01360077  RH  067%=      5-min Rain = 0
KFL1 101021Z 04007KT 14/08 A3052 RMK A01 T01380077  RH  066%=      5-min Rain = 0
KFL1 101022Z 04008KT 14/08 A3052 RMK A01 T01400076  RH  065%=      5-min Rain = 0
KFL1 101023Z 04007KT 14/08 A3052 RMK A01 T01420077  RH  065%=      5-min Rain = 0
KFL1 101024Z 04007KT 14/08 A3052 RMK A01 T01420078  RH  065%=      5-min Rain = 0
KFL1 101025Z 03008KT 14/08 A3052 RMK A01 T01410077  RH  065%=      5-min Rain = 0
KFL1 101026Z 04007KT 14/08 A3052 RMK A01 T01400076  RH  065%=      5-min Rain = 0
KFL1 101027Z 03007KT 14/08 A3052 RMK A01 T01400075  RH  065%=      5-min Rain = 0
KFL1 101028Z 03007KT 14/08 A3052 RMK A01 T01410076  RH  065%=      5-min Rain = 0
KFL1 101029Z 04007KT 14/08 A3052 RMK A01 T01400075  RH  065%=      5-min Rain = 0
KFL1 101030Z 04007KT 14/08 A3052 RMK A01 T01410075  RH  065%=      5-min Rain = 0
KFL1 101031Z 04008KT 14/08 A3052 RMK A01 T01420077  RH  065%=      5-min Rain = 0
KFL1 101032Z 04009KT 14/08 A3052 RMK A01 T01400076  RH  065%=      5-min Rain = 0
KFL1 101033Z 04009KT 14/08 A3052 RMK A01 T01390076  RH  066%=      5-min Rain = 0
KFL1 101034Z 04009KT 14/08 A3052 RMK A01 T01380077  RH  066%=      5-min Rain = 0
KFL1 101035Z 04009KT 14/08 A3052 RMK A01 T01380077  RH  066%=      5-min Rain = 0
KFL1 101036Z 04008KT 14/08 A3052 RMK A01 T01380076  RH  066%=      5-min Rain = 0
KFL1 101037Z 04008KT 14/08 A3052 RMK A01 T01380076  RH  066%=      5-min Rain = 0
KFL1 101038Z 04007KT 14/08 A3052 RMK A01 T01390078  RH  067%=      5-min Rain = 0
KFL1 101039Z 04008KT 14/08 A3052 RMK A01 T01370078  RH  067%=      5-min Rain = 0
KFL1 101040Z 04008KT 14/08 A3052 RMK A01 T01350077  RH  068%=      5-min Rain = 0
KFL1 101041Z 04008KT 14/08 A3052 RMK A01 T01350077  RH  068%=      5-min Rain = 0
KFL1 101042Z 03009KT 13/08 A3052 RMK A01 T01340077  RH  068%=      5-min Rain = 0
KFL1 101043Z 04008KT 13/08 A3052 RMK A01 T01340078  RH  068%=      5-min Rain = 0
KFL1 101044Z 04008KT 13/08 A3052 RMK A01 T01340077  RH  068%=      5-min Rain = 0
KFL1 101045Z 03009KT 14/08 A3052 RMK A01 T01350076  RH  067%=      5-min Rain = 0
KFL1 101046Z 04008KT 14/08 A3052 RMK A01 T01380077  RH  067%=      5-min Rain = 0
KFL1 101047Z 03008KT 14/08 A3052 RMK A01 T01380076  RH  066%=      5-min Rain = 0
KFL1 101048Z 03008KT 14/08 A3052 RMK A01 T01400075  RH  065%=      5-min Rain = 0
KFL1 101049Z 03008KT 14/08 A3052 RMK A01 T01410076  RH  065%=      5-min Rain = 0
KFL1 101050Z 03007KT 14/07 A3052 RMK A01 T01420074  RH  064%=      5-min Rain = 0
KFL1 101051Z 03008KT 14/07 A3052 RMK A01 T01440074  RH  063%=      5-min Rain = 0
KFL1 101052Z 03008KT 15/07 A3052 RMK A01 T01450073  RH  062%=      5-min Rain = 0
KFL1 101053Z 04007KT 15/07 A3052 RMK A01 T01470073  RH  061%=      5-min Rain = 0
KFL1 101054Z 03007KT 15/07 A3052 RMK A01 T01490074  RH  061%=      5-min Rain = 0
KFL1 101055Z 03007KT 15/07 A3052 RMK A01 T01490074  RH  061%=      5-min Rain = 0
KFL1 101056Z 03007KT 15/07 A3052 RMK A01 T01480074  RH  061%=      5-min Rain = 0
KFL1 101057Z 03007KT 15/08 A3052 RMK A01 T01480075  RH  061%=      5-min Rain = 0
KFL1 101058Z 03007KT 15/08 A3052 RMK A01 T01470075  RH  062%=      5-min Rain = 0
KFL1 101059Z 03008KT 15/07 A3052 RMK A01 T01450074  RH  062%=      5-min Rain = 0
KFL1 101100Z 03008KT 14/08 A3052 RMK A01 T01440075  RH  063%=      5-min Rain = 0
KFL1 101101Z 03008KT 14/08 A3052 RMK A01 T01430076  RH  064%=      5-min Rain = 0
KFL1 101102Z 03009KT 14/08 A3052 RMK A01 T01400076  RH  065%=      5-min Rain = 0
KFL1 101103Z 03009KT 14/08 A3052 RMK A01 T01380075  RH  066%=      5-min Rain = 0
KFL1 101104Z 03008KT 14/08 A3052 RMK A01 T01390078  RH  067%=      5-min Rain = 0
KFL1 101105Z 03008KT 14/08 A3052 RMK A01 T01360077  RH  068%=      5-min Rain = 0
KFL1 101106Z 03009KT 13/08 A3052 RMK A01 T01330077  RH  068%=      5-min Rain = 0
KFL1 101107Z 03009KT 13/08 A3052 RMK A01 T01330077  RH  069%=      5-min Rain = 0
KFL1 101108Z 03008KT 13/08 A3052 RMK A01 T01330076  RH  069%=      5-min Rain = 0
KFL1 101109Z 04007KT 13/08 A3052 RMK A01 T01330076  RH  068%=      5-min Rain = 0
KFL1 101110Z 04007KT 13/08 A3052 RMK A01 T01330076  RH  068%=      5-min Rain = 0
KFL1 101111Z 03007KT 13/08 A3053 RMK A01 T01330077  RH  069%=      5-min Rain = 0
KFL1 101112Z 03008KT 13/08 A3053 RMK A01 T01320076  RH  069%=      5-min Rain = 0
KFL1 101113Z 03007KT 13/08 A3053 RMK A01 T01320076  RH  069%=      5-min Rain = 0
KFL1 101114Z 04007KT 13/08 A3053 RMK A01 T01310076  RH  069%=      5-min Rain = 0
KFL1 101115Z 04007KT 13/08 A3053 RMK A01 T01320077  RH  069%=      5-min Rain = 0
KFL1 101116Z 04008KT 13/08 A3053 RMK A01 T01310078  RH  070%=      5-min Rain = 0
KFL1 101117Z 04008KT 13/08 A3053 RMK A01 T01290078  RH  071%=      5-min Rain = 0
KFL1 101118Z 04008KT 13/08 A3053 RMK A01 T01280077  RH  071%=      5-min Rain = 0
KFL1 101119Z 04008KT 13/08 A3053 RMK A01 T01250076  RH  072%=      5-min Rain = 0
KFL1 101120Z 04008KT 12/08 A3053 RMK A01 T01240076  RH  072%=      5-min Rain = 0
KFL1 101121Z 04008KT 13/08 A3053 RMK A01 T01250077  RH  073%=      5-min Rain = 0
KFL1 101122Z 04008KT 12/08 A3053 RMK A01 T01240076  RH  072%=      5-min Rain = 0
KFL1 101123Z 04008KT 13/08 A3053 RMK A01 T01260077  RH  072%=      5-min Rain = 0
KFL1 101124Z 04009KT 13/08 A3053 RMK A01 T01250077  RH  072%=      5-min Rain = 0
KFL1 101125Z 04008KT 13/08 A3053 RMK A01 T01260077  RH  072%=      5-min Rain = 0
KFL1 101126Z 04007KT 13/08 A3053 RMK A01 T01270077  RH  072%=      5-min Rain = 0
KFL1 101127Z 04008KT 13/08 A3053 RMK A01 T01270077  RH  072%=      5-min Rain = 0
KFL1 101128Z 04007KT 13/08 A3053 RMK A01 T01270077  RH  072%=      5-min Rain = 0
KFL1 101129Z 04008KT 13/08 A3053 RMK A01 T01270078  RH  072%=      5-min Rain = 0
KFL1 101130Z 04008KT 13/08 A3053 RMK A01 T01260077  RH  072%=      5-min Rain = 0
KFL1 101131Z 04007KT 13/08 A3053 RMK A01 T01260078  RH  073%=      5-min Rain = 0
KFL1 101132Z 04009KT 13/08 A3053 RMK A01 T01260078  RH  073%=      5-min Rain = 0
KFL1 101133Z 04009KT 13/08 A3053 RMK A01 T01260079  RH  073%=      5-min Rain = 0
KFL1 101134Z 03009KT 13/08 A3053 RMK A01 T01250077  RH  073%=      5-min Rain = 0
KFL1 101135Z 04008KT 13/08 A3053 RMK A01 T01250077  RH  072%=      5-min Rain = 0
KFL1 101136Z 03008KT 13/08 A3053 RMK A01 T01260077  RH  072%=      5-min Rain = 0
KFL1 101137Z 04007KT 13/08 A3053 RMK A01 T01270077  RH  072%=      5-min Rain = 0
KFL1 101138Z 03007KT 13/08 A3053 RMK A01 T01280077  RH  071%=      5-min Rain = 0
KFL1 101139Z 03008KT 13/08 A3053 RMK A01 T01280077  RH  071%=      5-min Rain = 0
KFL1 101140Z 03008KT 13/08 A3053 RMK A01 T01290077  RH  071%=      5-min Rain = 0
KFL1 101141Z 04008KT 13/08 A3053 RMK A01 T01290077  RH  071%=      5-min Rain = 0
KFL1 101142Z 04007KT 13/08 A3053 RMK A01 T01280076  RH  070%=      5-min Rain = 0
KFL1 101143Z 04007KT 13/08 A3053 RMK A01 T01290077  RH  071%=      5-min Rain = 0
KFL1 101144Z 04007KT 13/08 A3053 RMK A01 T01280077  RH  071%=      5-min Rain = 0
KFL1 101145Z 04008KT 13/08 A3053 RMK A01 T01280078  RH  072%=      5-min Rain = 0
KFL1 101146Z 04008KT 13/08 A3053 RMK A01 T01270077  RH  072%=      5-min Rain = 0
KFL1 101147Z 03008KT 13/08 A3053 RMK A01 T01280078  RH  072%=      5-min Rain = 0
KFL1 101148Z 03008KT 13/08 A3053 RMK A01 T01280078  RH  071%=      5-min Rain = 0
KFL1 101149Z 04008KT 13/08 A3053 RMK A01 T01280077  RH  071%=      5-min Rain = 0
KFL1 101150Z 04008KT 13/08 A3053 RMK A01 T01290077  RH  071%=      5-min Rain = 0
KFL1 101151Z 04007KT 13/08 A3053 RMK A01 T01280076  RH  071%=      5-min Rain = 0
KFL1 101152Z 04007KT 13/08 A3053 RMK A01 T01280076  RH  071%=      5-min Rain = 0
KFL1 101153Z 04007KT 13/08 A3053 RMK A01 T01280077  RH  071%=      5-min Rain = 0
KFL1 101154Z 04008KT 13/08 A3053 RMK A01 T01280077  RH  071%=      5-min Rain = 0
KFL1 101155Z 04008KT 13/08 A3053 RMK A01 T01270077  RH  071%=      5-min Rain = 0
KFL1 101156Z 04008KT 13/08 A3053 RMK A01 T01280078  RH  072%=      5-min Rain = 0
KFL1 101157Z 04007KT 13/08 A3053 RMK A01 T01270076  RH  071%=      5-min Rain = 0
KFL1 101158Z 04007KT 13/08 A3053 RMK A01 T01290078  RH  071%=      5-min Rain = 0
KFL1 101159Z 03008KT 13/08 A3053 RMK A01 T01300078  RH  070%=      5-min Rain = 0
KFL1 101200Z 04007KT 13/08 A3053 RMK A01 T01300077  RH  070%=      5-min Rain = 0
KFL1 101201Z 04007KT 13/08 A3053 RMK A01 T01320077  RH  069%=      5-min Rain = 0
KFL1 101202Z 04007KT 13/08 A3053 RMK A01 T01330077  RH  068%=      5-min Rain = 0
KFL1 101203Z 04007KT 13/08 A3053 RMK A01 T01340076  RH  068%=      5-min Rain = 0
KFL1 101204Z 04007KT 13/08 A3053 RMK A01 T01340076  RH  068%=      5-min Rain = 0
KFL1 101205Z 04007KT 13/08 A3053 RMK A01 T01340076  RH  068%=      5-min Rain = 0
KFL1 101206Z 04007KT 13/08 A3053 RMK A01 T01330076  RH  068%=      5-min Rain = 0
KFL1 101207Z 04006KT 13/08 A3053 RMK A01 T01330076  RH  068%=      5-min Rain = 0
KFL1 101208Z 04006KT 13/08 A3053 RMK A01 T01320076  RH  069%=      5-min Rain = 0
KFL1 101209Z 04007KT 13/08 A3053 RMK A01 T01300076  RH  070%=      5-min Rain = 0
KFL1 101210Z 04007KT 13/08 A3053 RMK A01 T01300077  RH  070%=      5-min Rain = 0
KFL1 101211Z 04006KT 13/08 A3053 RMK A01 T01300077  RH  070%=      5-min Rain = 0
KFL1 101212Z 04007KT 13/08 A3053 RMK A01 T01290077  RH  071%=      5-min Rain = 0
KFL1 101213Z 04007KT 13/08 A3053 RMK A01 T01290076  RH  070%=      5-min Rain = 0
KFL1 101214Z 03006KT 13/08 A3053 RMK A01 T01300077  RH  070%=      5-min Rain = 0
KFL1 101215Z 03006KT 13/08 A3053 RMK A01 T01300076  RH  070%=      5-min Rain = 0
KFL1 101216Z 03007KT 13/08 A3053 RMK A01 T01300076  RH  070%=      5-min Rain = 0
KFL1 101217Z 04006KT 13/08 A3053 RMK A01 T01300076  RH  070%=      5-min Rain = 0
KFL1 101218Z 04006KT 13/08 A3053 RMK A01 T01320077  RH  069%=      5-min Rain = 0
KFL1 101219Z 04006KT 13/08 A3053 RMK A01 T01330076  RH  068%=      5-min Rain = 0
KFL1 101220Z 05005KT 13/08 A3053 RMK A01 T01330075  RH  068%=      5-min Rain = 0
KFL1 101221Z 04005KT 13/08 A3053 RMK A01 T01340076  RH  068%=      5-min Rain = 0
KFL1 101222Z 05005KT 14/08 A3053 RMK A01 T01350076  RH  068%=      5-min Rain = 0
KFL1 101223Z 04005KT 14/08 A3053 RMK A01 T01360077  RH  067%=      5-min Rain = 0
KFL1 101224Z 05005KT 14/08 A3053 RMK A01 T01360077  RH  068%=      5-min Rain = 0
KFL1 101225Z 05005KT 14/08 A3053 RMK A01 T01350077  RH  068%=      5-min Rain = 0
KFL1 101226Z 05005KT 14/08 A3053 RMK A01 T01350078  RH  069%=      5-min Rain = 0
KFL1 101227Z 05005KT 13/08 A3053 RMK A01 T01330078  RH  069%=      5-min Rain = 0
KFL1 101228Z 04005KT 13/08 A3053 RMK A01 T01320078  RH  070%=      5-min Rain = 0
KFL1 101229Z 04006KT 13/08 A3053 RMK A01 T01300078  RH  070%=      5-min Rain = 0
KFL1 101230Z 04006KT 13/08 A3053 RMK A01 T01290078  RH  071%=      5-min Rain = 0
KFL1 101231Z 04006KT 13/08 A3053 RMK A01 T01290078  RH  071%=      5-min Rain = 0
KFL1 101232Z 04005KT 13/08 A3053 RMK A01 T01290078  RH  071%=      5-min Rain = 0
KFL1 101233Z 04006KT 13/08 A3053 RMK A01 T01290079  RH  071%=      5-min Rain = 0
KFL1 101234Z 04006KT 13/08 A3053 RMK A01 T01270077  RH  071%=      5-min Rain = 0
KFL1 101235Z 04007KT 13/08 A3053 RMK A01 T01280077  RH  071%=      5-min Rain = 0
KFL1 101236Z 04007KT 13/08 A3052 RMK A01 T01290078  RH  071%=      5-min Rain = 0
KFL1 101237Z 04008KT 13/08 A3052 RMK A01 T01280077  RH  071%=      5-min Rain = 0
KFL1 101238Z 04007KT 13/08 A3052 RMK A01 T01280077  RH  071%=      5-min Rain = 0
KFL1 101239Z 04007KT 13/08 A3052 RMK A01 T01290078  RH  071%=      5-min Rain = 0
KFL1 101240Z 04007KT 13/08 A3052 RMK A01 T01290078  RH  071%=      5-min Rain = 0
KFL1 101241Z 04008KT 13/08 A3052 RMK A01 T01300078  RH  071%=      5-min Rain = 0
KFL1 101242Z 04008KT 13/08 A3052 RMK A01 T01300078  RH  071%=      5-min Rain = 0
KFL1 101243Z 04008KT 13/08 A3052 RMK A01 T01300077  RH  070%=      5-min Rain = 0
KFL1 101244Z 04008KT 13/08 A3052 RMK A01 T01310078  RH  070%=      5-min Rain = 0
KFL1 101245Z 03008KT 13/08 A3052 RMK A01 T01330079  RH  070%=      5-min Rain = 0
KFL1 101246Z 04008KT 13/08 A3052 RMK A01 T01330078  RH  069%=      5-min Rain = 0
KFL1 101247Z 03008KT 14/08 A3052 RMK A01 T01350078  RH  068%=      5-min Rain = 0
KFL1 101248Z 04006KT 14/08 A3052 RMK A01 T01380078  RH  067%=      5-min Rain = 0
KFL1 101249Z 03007KT 14/08 A3052 RMK A01 T01400079  RH  066%=      5-min Rain = 0
KFL1 101250Z 04007KT 14/08 A3052 RMK A01 T01410078  RH  066%=      5-min Rain = 0
KFL1 101251Z 04007KT 15/08 A3052 RMK A01 T01450081  RH  066%=      5-min Rain = 0
KFL1 101252Z 04007KT 14/08 A3052 RMK A01 T01440079  RH  065%=      5-min Rain = 0
KFL1 101253Z 04007KT 15/08 A3052 RMK A01 T01450080  RH  065%=      5-min Rain = 0
KFL1 101254Z 04007KT 15/08 A3052 RMK A01 T01450080  RH  065%=      5-min Rain = 0
KFL1 101255Z 04006KT 14/08 A3052 RMK A01 T01440081  RH  066%=      5-min Rain = 0
KFL1 101256Z 03007KT 15/08 A3052 RMK A01 T01450081  RH  066%=      5-min Rain = 0
KFL1 101257Z 04007KT 15/08 A3052 RMK A01 T01450081  RH  065%=      5-min Rain = 0
KFL1 101258Z 04007KT 14/08 A3052 RMK A01 T01440082  RH  066%=      5-min Rain = 0
KFL1 101259Z 04006KT 15/08 A3052 RMK A01 T01450083  RH  066%=      5-min Rain = 0
KFL1 101300Z 04007KT 15/08 A3052 RMK A01 T01450084  RH  066%=      5-min Rain = 0
KFL1 101301Z 04007KT 15/08 A3052 RMK A01 T01450082  RH  066%=      5-min Rain = 0
KFL1 101302Z 04007KT 14/08 A3052 RMK A01 T01440082  RH  066%=      5-min Rain = 0
KFL1 101303Z 04006KT 15/08 A3052 RMK A01 T01450083  RH  066%=      5-min Rain = 0
KFL1 101304Z 04007KT 15/08 A3052 RMK A01 T01460083  RH  066%=      5-min Rain = 0
KFL1 101305Z 04007KT 15/08 A3052 RMK A01 T01460083  RH  066%=      5-min Rain = 0
KFL1 101306Z 04007KT 15/08 A3052 RMK A01 T01470083  RH  065%=      5-min Rain = 0
KFL1 101307Z 04007KT 15/08 A3053 RMK A01 T01480084  RH  065%=      5-min Rain = 0
KFL1 101308Z 04007KT 15/08 A3053 RMK A01 T01480084  RH  065%=      5-min Rain = 0
KFL1 101309Z 04007KT 15/09 A3053 RMK A01 T01490085  RH  065%=      5-min Rain = 0
KFL1 101310Z 04006KT 15/08 A3053 RMK A01 T01490084  RH  065%=      5-min Rain = 0
KFL1 101311Z 04006KT 15/08 A3053 RMK A01 T01490084  RH  065%=      5-min Rain = 0
KFL1 101312Z 04006KT 15/09 A3053 RMK A01 T01500085  RH  065%=      5-min Rain = 0
KFL1 101313Z 04006KT 15/09 A3053 RMK A01 T01510086  RH  065%=      5-min Rain = 0
KFL1 101314Z 04006KT 15/09 A3053 RMK A01 T01530087  RH  065%=      5-min Rain = 0
KFL1 101315Z 04006KT 15/09 A3053 RMK A01 T01520085  RH  064%=      5-min Rain = 0
KFL1 101316Z 04007KT 15/09 A3053 RMK A01 T01520085  RH  064%=      5-min Rain = 0
KFL1 101317Z 04007KT 15/09 A3053 RMK A01 T01530086  RH  064%=      5-min Rain = 0
KFL1 101318Z 04006KT 15/09 A3053 RMK A01 T01540086  RH  064%=      5-min Rain = 0
KFL1 101319Z 04006KT 15/09 A3053 RMK A01 T01540087  RH  064%=      5-min Rain = 0
KFL1 101320Z 04006KT 16/09 A3053 RMK A01 T01560088  RH  064%=      5-min Rain = 0
KFL1 101321Z 04006KT 16/09 A3053 RMK A01 T01570086  RH  063%=      5-min Rain = 0
KFL1 101322Z 04005KT 16/09 A3053 RMK A01 T01580087  RH  063%=      5-min Rain = 0
KFL1 101323Z 04006KT 16/09 A3053 RMK A01 T01590087  RH  062%=      5-min Rain = 0
KFL1 101324Z 04006KT 16/09 A3053 RMK A01 T01610088  RH  062%=      5-min Rain = 0
KFL1 101325Z 04006KT 16/09 A3053 RMK A01 T01610088  RH  062%=      5-min Rain = 0
KFL1 101326Z 04006KT 16/09 A3053 RMK A01 T01630089  RH  062%=      5-min Rain = 0
KFL1 101327Z 04006KT 17/09 A3053 RMK A01 T01650090  RH  061%=      5-min Rain = 0
KFL1 101328Z 04006KT 16/09 A3053 RMK A01 T01630088  RH  061%=      5-min Rain = 0
KFL1 101329Z 04006KT 17/09 A3053 RMK A01 T01650089  RH  061%=      5-min Rain = 0
KFL1 101330Z 04006KT 17/09 A3053 RMK A01 T01650088  RH  061%=      5-min Rain = 0
KFL1 101331Z 04006KT 17/09 A3053 RMK A01 T01670089  RH  060%=      5-min Rain = 0
KFL1 101332Z 05006KT 17/09 A3053 RMK A01 T01680089  RH  060%=      5-min Rain = 0
KFL1 101333Z 04005KT 17/09 A3053 RMK A01 T01700092  RH  060%=      5-min Rain = 0
KFL1 101334Z 05005KT 17/09 A3053 RMK A01 T01690091  RH  060%=      5-min Rain = 0
KFL1 101335Z 04005KT 17/09 A3053 RMK A01 T01700092  RH  060%=      5-min Rain = 0
KFL1 101336Z 04005KT 17/09 A3053 RMK A01 T01710093  RH  060%=      5-min Rain = 0
KFL1 101337Z 05005KT 17/09 A3053 RMK A01 T01710093  RH  060%=      5-min Rain = 0
KFL1 101338Z 05005KT 17/10 A3053 RMK A01 T01730096  RH  060%=      5-min Rain = 0
KFL1 101339Z 05005KT 17/10 A3053 RMK A01 T01740097  RH  060%=      5-min Rain = 0
KFL1 101340Z 05004KT 18/09 A3053 RMK A01 T01750093  RH  059%=      5-min Rain = 0
KFL1 101341Z 06005KT 18/09 A3053 RMK A01 T01760094  RH  058%=      5-min Rain = 0
KFL1 101342Z 05004KT 18/10 A3053 RMK A01 T01770095  RH  059%=      5-min Rain = 0
KFL1 101343Z 05004KT 18/09 A3053 RMK A01 T01770094  RH  058%=      5-min Rain = 0
KFL1 101344Z 05004KT 18/10 A3053 RMK A01 T01790096  RH  058%=      5-min Rain = 0
KFL1 101345Z 05004KT 18/09 A3053 RMK A01 T01780094  RH  058%=      5-min Rain = 0
KFL1 101346Z 05003KT 18/10 A3053 RMK A01 T01800096  RH  058%=      5-min Rain = 0
KFL1 101347Z 06003KT 18/10 A3053 RMK A01 T01810098  RH  058%=      5-min Rain = 0
KFL1 101348Z 05003KT 18/10 A3053 RMK A01 T01820098  RH  058%=      5-min Rain = 0
KFL1 101349Z 05003KT 18/10 A3053 RMK A01 T01830097  RH  057%=      5-min Rain = 0
KFL1 101350Z 06004KT 19/10 A3053 RMK A01 T01850097  RH  057%=      5-min Rain = 0
KFL1 101351Z 06005KT 19/10 A3053 RMK A01 T01880102  RH  057%=      5-min Rain = 0
KFL1 101352Z 07005KT 19/10 A3053 RMK A01 T01880100  RH  057%=      5-min Rain = 0
KFL1 101353Z 07005KT 19/09 A3053 RMK A01 T01880091  RH  053%=      5-min Rain = 0
KFL1 101354Z 08005KT 19/09 A3053 RMK A01 T01890091  RH  053%=      5-min Rain = 0
KFL1 101355Z 07005KT 19/09 A3053 RMK A01 T01900093  RH  054%=      5-min Rain = 0
KFL1 101356Z 07005KT 19/09 A3053 RMK A01 T01900093  RH  053%=      5-min Rain = 0
KFL1 101357Z 08005KT 19/09 A3053 RMK A01 T01920094  RH  053%=      5-min Rain = 0
KFL1 101358Z 09005KT 19/10 A3053 RMK A01 T01920097  RH  054%=      5-min Rain = 0
KFL1 101359Z 08005KT 19/10 A3053 RMK A01 T01940096  RH  053%=      5-min Rain = 0
KFL1 101400Z 09005KT 19/09 A3053 RMK A01 T01940094  RH  052%=      5-min Rain = 0
KFL1 101401Z 08005KT 19/09 A3053 RMK A01 T01940092  RH  052%=      5-min Rain = 0
KFL1 101402Z 08006KT 19/09 A3053 RMK A01 T01940090  RH  051%=      5-min Rain = 0
KFL1 101403Z 07005KT 19/09 A3053 RMK A01 T01940091  RH  051%=      5-min Rain = 0
KFL1 101404Z 07005KT 20/09 A3053 RMK A01 T01960092  RH  051%=      5-min Rain = 0
KFL1 101405Z 06004KT 20/09 A3053 RMK A01 T01950092  RH  051%=      5-min Rain = 0
KFL1 101406Z 07004KT 20/09 A3053 RMK A01 T01950092  RH  051%=      5-min Rain = 0
KFL1 101407Z 07005KT 20/09 A3053 RMK A01 T01970091  RH  050%=      5-min Rain = 0
KFL1 101408Z 07006KT 20/09 A3053 RMK A01 T01970093  RH  051%=      5-min Rain = 0
KFL1 101409Z 07005KT 20/10 A3053 RMK A01 T01970100  RH  053%=      5-min Rain = 0
KFL1 101410Z 05003KT 20/10 A3053 RMK A01 T01970097  RH  052%=      5-min Rain = 0
KFL1 101411Z 08004KT 20/09 A3053 RMK A01 T01990094  RH  051%=      5-min Rain = 0
KFL1 101412Z 08004KT 20/10 A3053 RMK A01 T01980096  RH  051%=      5-min Rain = 0
KFL1 101413Z 08004KT 20/10 A3053 RMK A01 T02000098  RH  052%=      5-min Rain = 0
KFL1 101414Z 09006KT 20/09 A3053 RMK A01 T02000094  RH  051%=      5-min Rain = 0
KFL1 101415Z 08007KT 20/10 A3053 RMK A01 T02000099  RH  052%=      5-min Rain = 0
KFL1 101416Z 09005KT 20/10 A3053 RMK A01 T01990100  RH  053%=      5-min Rain = 0
KFL1 101417Z 09007KT 20/10 A3053 RMK A01 T01990096  RH  051%=      5-min Rain = 0
KFL1 101418Z 08008KT 20/09 A3053 RMK A01 T02000094  RH  050%=      5-min Rain = 0
KFL1 101419Z 09006KT 20/09 A3053 RMK A01 T02000091  RH  049%=      5-min Rain = 0
KFL1 101420Z 08007KT 20/09 A3053 RMK A01 T01990094  RH  051%=      5-min Rain = 0
KFL1 101421Z 08006KT 20/10 A3053 RMK A01 T02000095  RH  051%=      5-min Rain = 0
KFL1 101422Z 09006KT 20/11 A3053 RMK A01 T02000105  RH  054%=      5-min Rain = 0
KFL1 101423Z 10006KT 20/11 A3053 RMK A01 T02020105  RH  054%=      5-min Rain = 0
KFL1 101424Z 11006KT 20/10 A3053 RMK A01 T02020099  RH  052%=      5-min Rain = 0
KFL1 101425Z 10007KT 20/10 A3053 RMK A01 T02030097  RH  051%=      5-min Rain = 0
KFL1 101426Z 09007KT 20/10 A3053 RMK A01 T02030099  RH  051%=      5-min Rain = 0
KFL1 101427Z 09008KT 20/10 A3053 RMK A01 T02030098  RH  051%=      5-min Rain = 0
KFL1 101428Z 09006KT 20/09 A3053 RMK A01 T02030093  RH  049%=      5-min Rain = 0
KFL1 101429Z 09006KT 20/10 A3053 RMK A01 T02020097  RH  051%=      5-min Rain = 0
KFL1 101430Z 08007KT 20/10 A3053 RMK A01 T02040099  RH  051%=      5-min Rain = 0
KFL1 101431Z 09006KT 20/10 A3053 RMK A01 T02030100  RH  052%=      5-min Rain = 0
KFL1 101432Z 09006KT 20/10 A3053 RMK A01 T02030101  RH  052%=      5-min Rain = 0
KFL1 101433Z 08007KT 20/10 A3053 RMK A01 T02040099  RH  051%=      5-min Rain = 0
KFL1 101434Z 09006KT 21/09 A3053 RMK A01 T02050094  RH  049%=      5-min Rain = 0
KFL1 101435Z 08004KT 20/09 A3053 RMK A01 T02040093  RH  049%=      5-min Rain = 0
KFL1 101436Z 09005KT 20/09 A3053 RMK A01 T02040094  RH  049%=      5-min Rain = 0
KFL1 101437Z 08004KT 20/09 A3053 RMK A01 T02030093  RH  049%=      5-min Rain = 0
KFL1 101438Z 08004KT 20/10 A3053 RMK A01 T02030099  RH  051%=      5-min Rain = 0
KFL1 101439Z 08006KT 21/11 A3053 RMK A01 T02050105  RH  053%=      5-min Rain = 0
KFL1 101440Z 08005KT 21/10 A3053 RMK A01 T02070103  RH  051%=      5-min Rain = 0
KFL1 101441Z 07003KT 21/10 A3053 RMK A01 T02090103  RH  051%=      5-min Rain = 0
KFL1 101442Z 07005KT 21/10 A3054 RMK A01 T02100101  RH  050%=      5-min Rain = 0
KFL1 101443Z 08006KT 21/11 A3054 RMK A01 T02100107  RH  052%=      5-min Rain = 0
KFL1 101444Z 08006KT 21/10 A3054 RMK A01 T02090100  RH  050%=      5-min Rain = 0
KFL1 101445Z 08008KT 21/10 A3054 RMK A01 T02070096  RH  049%=      5-min Rain = 0
KFL1 101446Z 08007KT 21/10 A3054 RMK A01 T02060097  RH  050%=      5-min Rain = 0
KFL1 101447Z 09007KT 21/10 A3054 RMK A01 T02060096  RH  049%=      5-min Rain = 0
KFL1 101448Z 09005KT 20/09 A3054 RMK A01 T02040094  RH  049%=      5-min Rain = 0
KFL1 101449Z 09007KT 21/10 A3054 RMK A01 T02050095  RH  049%=      5-min Rain = 0
KFL1 101450Z 08008KT 21/10 A3054 RMK A01 T02050096  RH  050%=      5-min Rain = 0
KFL1 101451Z 09006KT 21/10 A3054 RMK A01 T02050099  RH  050%=      5-min Rain = 0
KFL1 101452Z 09006KT 21/10 A3054 RMK A01 T02060099  RH  050%=      5-min Rain = 0
KFL1 101453Z 08007KT 21/10 A3054 RMK A01 T02060097  RH  049%=      5-min Rain = 0
KFL1 101454Z 09007KT 21/09 A3054 RMK A01 T02060094  RH  049%=      5-min Rain = 0
KFL1 101455Z 09005KT 21/10 A3053 RMK A01 T02060097  RH  049%=      5-min Rain = 0
KFL1 101456Z 09007KT 21/10 A3053 RMK A01 T02060101  RH  051%=      5-min Rain = 0
KFL1 101457Z 08007KT 21/10 A3053 RMK A01 T02060097  RH  050%=      5-min Rain = 0
KFL1 101458Z 09006KT 21/10 A3053 RMK A01 T02090096  RH  048%=      5-min Rain = 0
KFL1 101459Z 08004KT 21/09 A3053 RMK A01 T02070094  RH  048%=      5-min Rain = 0
KFL1 101500Z 09005KT 21/10 A3053 RMK A01 T02060100  RH  051%=      5-min Rain = 0
KFL1 101501Z 10006KT 21/10 A3053 RMK A01 T02080098  RH  049%=      5-min Rain = 0
KFL1 101502Z 09006KT 21/10 A3053 RMK A01 T02080098  RH  049%=      5-min Rain = 0
KFL1 101503Z 10006KT 21/10 A3053 RMK A01 T02100098  RH  049%=      5-min Rain = 0
KFL1 101504Z 11005KT 21/10 A3053 RMK A01 T02110103  RH  050%=      5-min Rain = 0
KFL1 101505Z 10003KT 21/10 A3053 RMK A01 T02110096  RH  048%=      5-min Rain = 0
KFL1 101506Z 12004KT 21/10 A3053 RMK A01 T02100098  RH  049%=      5-min Rain = 0
KFL1 101507Z 12005KT 21/10 A3053 RMK A01 T02090098  RH  049%=      5-min Rain = 0
KFL1 101508Z 11005KT 21/10 A3053 RMK A01 T02090096  RH  048%=      5-min Rain = 0
KFL1 101509Z 11005KT 21/10 A3053 RMK A01 T02090099  RH  049%=      5-min Rain = 0
KFL1 101510Z 12005KT 21/10 A3053 RMK A01 T02090102  RH  051%=      5-min Rain = 0
KFL1 101511Z 13004KT 21/11 A3053 RMK A01 T02100105  RH  051%=      5-min Rain = 0
KFL1 101512Z 12003KT 21/10 A3053 RMK A01 T02120099  RH  049%=      5-min Rain = 0
KFL1 101513Z 10005KT 21/10 A3053 RMK A01 T02130100  RH  049%=      5-min Rain = 0
KFL1 101514Z 10004KT 21/10 A3053 RMK A01 T02130102  RH  049%=      5-min Rain = 0
KFL1 101515Z 10004KT 22/10 A3053 RMK A01 T02150102  RH  049%=      5-min Rain = 0
KFL1 101516Z 09005KT 21/10 A3053 RMK A01 T02140100  RH  048%=      5-min Rain = 0
KFL1 101517Z 12004KT 22/10 A3053 RMK A01 T02170104  RH  049%=      5-min Rain = 0
KFL1 101518Z 13005KT 22/10 A3053 RMK A01 T02150100  RH  048%=      5-min Rain = 0
KFL1 101519Z 13005KT 22/10 A3053 RMK A01 T02160100  RH  048%=      5-min Rain = 0
KFL1 101520Z 12005KT 22/10 A3053 RMK A01 T02150100  RH  048%=      5-min Rain = 0
KFL1 101521Z 11004KT 22/10 A3053 RMK A01 T02150096  RH  047%=      5-min Rain = 0
KFL1 101522Z 11003KT 22/10 A3053 RMK A01 T02160100  RH  048%=      5-min Rain = 0
KFL1 101523Z 11003KT 22/10 A3053 RMK A01 T02170098  RH  047%=      5-min Rain = 0
KFL1 101524Z 11003KT 22/10 A3053 RMK A01 T02160099  RH  047%=      5-min Rain = 0
KFL1 101525Z 11004KT 22/10 A3053 RMK A01 T02150097  RH  047%=      5-min Rain = 0
KFL1 101526Z 12003KT 21/10 A3053 RMK A01 T02130099  RH  048%=      5-min Rain = 0
KFL1 101527Z 13003KT 21/10 A3053 RMK A01 T02140097  RH  047%=      5-min Rain = 0
KFL1 101528Z 13003KT 21/10 A3053 RMK A01 T02130099  RH  048%=      5-min Rain = 0
KFL1 101529Z 14004KT 21/10 A3052 RMK A01 T02140096  RH  047%=      5-min Rain = 0
KFL1 101530Z 13005KT 22/11 A3052 RMK A01 T02170105  RH  049%=      5-min Rain = 0
KFL1 101531Z 15004KT 22/10 A3052 RMK A01 T02160097  RH  046%=      5-min Rain = 0
KFL1 101532Z 14003KT 22/10 A3053 RMK A01 T02180101  RH  047%=      5-min Rain = 0
KFL1 101533Z 13003KT 22/10 A3053 RMK A01 T02190098  RH  046%=      5-min Rain = 0
KFL1 101534Z 11003KT 22/10 A3053 RMK A01 T02180097  RH  046%=      5-min Rain = 0
KFL1 101535Z 11004KT 22/10 A3053 RMK A01 T02180099  RH  047%=      5-min Rain = 0
KFL1 101536Z 11004KT 22/10 A3053 RMK A01 T02190098  RH  046%=      5-min Rain = 0
KFL1 101537Z 12002KT 22/10 A3053 RMK A01 T02190098  RH  046%=      5-min Rain = 0
KFL1 101538Z 10002KT 22/10 A3053 RMK A01 T02200100  RH  047%=      5-min Rain = 0
KFL1 101539Z 12004KT 22/10 A3053 RMK A01 T02190099  RH  046%=      5-min Rain = 0
KFL1 101540Z 12003KT 22/10 A3053 RMK A01 T02200098  RH  046%=      5-min Rain = 0
KFL1 101541Z 11004KT 22/10 A3053 RMK A01 T02210098  RH  046%=      5-min Rain = 0
KFL1 101542Z 11003KT 22/10 A3053 RMK A01 T02200095  RH  045%=      5-min Rain = 0
KFL1 101543Z 09002KT 22/09 A3053 RMK A01 T02190094  RH  045%=      5-min Rain = 0
KFL1 101544Z 11003KT 22/10 A3053 RMK A01 T02190095  RH  045%=      5-min Rain = 0
KFL1 101545Z 14003KT 22/10 A3052 RMK A01 T02190099  RH  046%=      5-min Rain = 0
KFL1 101546Z 12003KT 22/10 A3052 RMK A01 T02220102  RH  046%=      5-min Rain = 0
KFL1 101547Z 15004KT 22/10 A3052 RMK A01 T02220099  RH  046%=      5-min Rain = 0
KFL1 101548Z 15005KT 22/10 A3052 RMK A01 T02220098  RH  045%=      5-min Rain = 0
KFL1 101549Z 14004KT 22/10 A3052 RMK A01 T02210095  RH  045%=      5-min Rain = 0
KFL1 101550Z 17002KT 22/09 A3052 RMK A01 T02190094  RH  045%=      5-min Rain = 0
KFL1 101551Z 18001KT 22/10 A3052 RMK A01 T02170098  RH  046%=      5-min Rain = 0
KFL1 101552Z 22001KT 22/10 A3052 RMK A01 T02190101  RH  047%=      5-min Rain = 0
KFL1 101553Z 20003KT 22/10 A3052 RMK A01 T02220100  RH  046%=      5-min Rain = 0
KFL1 101554Z 21002KT 22/10 A3052 RMK A01 T02230099  RH  045%=      5-min Rain = 0
KFL1 101555Z 16003KT 22/10 A3052 RMK A01 T02220099  RH  045%=      5-min Rain = 0
KFL1 101556Z 18005KT 22/11 A3052 RMK A01 T02240105  RH  047%=      5-min Rain = 0
KFL1 101557Z 15003KT 23/11 A3052 RMK A01 T02270108  RH  047%=      5-min Rain = 0
KFL1 101558Z 15003KT 23/11 A3052 RMK A01 T02290105  RH  045%=      5-min Rain = 0
KFL1 101559Z 16003KT 23/10 A3052 RMK A01 T02320104  RH  044%=      5-min Rain = 0
KFL1 101600Z 15004KT 23/11 A3052 RMK A01 T02320105  RH  045%=      5-min Rain = 0
KFL1 101601Z 16003KT 23/10 A3052 RMK A01 T02290098  RH  043%=      5-min Rain = 0
KFL1 101602Z 14003KT 23/10 A3052 RMK A01 T02270096  RH  043%=      5-min Rain = 0
KFL1 101603Z 13002KT 23/10 A3052 RMK A01 T02260098  RH  044%=      5-min Rain = 0
KFL1 101604Z 19002KT 23/10 A3052 RMK A01 T02250099  RH  045%=      5-min Rain = 0
KFL1 101605Z 20004KT 23/10 A3052 RMK A01 T02260100  RH  045%=      5-min Rain = 0
KFL1 101606Z 22004KT 23/10 A3051 RMK A01 T02250097  RH  044%=      5-min Rain = 0
KFL1 101607Z 22003KT 23/10 A3051 RMK A01 T02260096  RH  043%=      5-min Rain = 0
KFL1 101608Z 22004KT 23/10 A3051 RMK A01 T02270103  RH  045%=      5-min Rain = 0
KFL1 101609Z 23003KT 23/10 A3051 RMK A01 T02270099  RH  044%=      5-min Rain = 0
KFL1 101610Z 22002KT 23/10 A3051 RMK A01 T02280098  RH  044%=      5-min Rain = 0
KFL1 101611Z 23002KT 23/10 A3051 RMK A01 T02290100  RH  044%=      5-min Rain = 0
KFL1 101612Z 20003KT 23/09 A3051 RMK A01 T02290094  RH  042%=      5-min Rain = 0
KFL1 101613Z 20003KT 23/10 A3051 RMK A01 T02280095  RH  043%=      5-min Rain = 0
KFL1 101614Z 23003KT 23/09 A3051 RMK A01 T02280094  RH  043%=      5-min Rain = 0
KFL1 101615Z 21006KT 23/10 A3051 RMK A01 T02270098  RH  044%=      5-min Rain = 0
KFL1 101616Z 20006KT 23/10 A3051 RMK A01 T02290097  RH  043%=      5-min Rain = 0
KFL1 101617Z 18006KT 23/10 A3051 RMK A01 T02310099  RH  043%=      5-min Rain = 0
KFL1 101618Z 20006KT 24/10 A3051 RMK A01 T02350101  RH  043%=      5-min Rain = 0
KFL1 101619Z 19004KT 24/10 A3051 RMK A01 T02360100  RH  042%=      5-min Rain = 0
KFL1 101620Z 17004KT 24/10 A3051 RMK A01 T02370096  RH  041%=      5-min Rain = 0
KFL1 101621Z 17005KT 24/10 A3051 RMK A01 T02380101  RH  042%=      5-min Rain = 0
KFL1 101622Z 17005KT 24/10 A3051 RMK A01 T02390103  RH  042%=      5-min Rain = 0
KFL1 101623Z 17004KT 24/10 A3051 RMK A01 T02400098  RH  041%=      5-min Rain = 0
KFL1 101624Z 17003KT 24/09 A3051 RMK A01 T02380094  RH  040%=      5-min Rain = 0
KFL1 101625Z 16006KT 24/10 A3051 RMK A01 T02360099  RH  042%=      5-min Rain = 0
KFL1 101626Z 16005KT 24/10 A3051 RMK A01 T02370095  RH  041%=      5-min Rain = 0
KFL1 101627Z 16003KT 24/09 A3051 RMK A01 T02360089  RH  039%=      5-min Rain = 0
KFL1 101628Z 14002KT 23/09 A3051 RMK A01 T02310088  RH  040%=      5-min Rain = 0
KFL1 101629Z 16004KT 23/09 A3051 RMK A01 T02310094  RH  042%=      5-min Rain = 0
KFL1 101630Z 17006KT 23/10 A3051 RMK A01 T02310098  RH  043%=      5-min Rain = 0
KFL1 101631Z 15005KT 23/10 A3051 RMK A01 T02340096  RH  041%=      5-min Rain = 0
KFL1 101632Z 16004KT 23/10 A3051 RMK A01 T02340098  RH  042%=      5-min Rain = 0
KFL1 101633Z 13003KT 24/09 A3051 RMK A01 T02350093  RH  040%=      5-min Rain = 0
KFL1 101634Z 15001KT 23/10 A3051 RMK A01 T02320095  RH  042%=      5-min Rain = 0
KFL1 101635Z 18004KT 23/11 A3051 RMK A01 T02330107  RH  045%=      5-min Rain = 0
KFL1 101636Z 20004KT 24/10 A3051 RMK A01 T02390100  RH  042%=      5-min Rain = 0
KFL1 101637Z 20007KT 24/09 A3051 RMK A01 T02410093  RH  039%=      5-min Rain = 0
KFL1 101638Z 22004KT 24/09 A3051 RMK A01 T02390090  RH  039%=      5-min Rain = 0
KFL1 101639Z 21005KT 24/10 A3051 RMK A01 T02370096  RH  041%=      5-min Rain = 0
KFL1 101640Z 24005KT 24/11 A3051 RMK A01 T02370106  RH  044%=      5-min Rain = 0
KFL1 101641Z 26003KT 24/10 A3051 RMK A01 T02400104  RH  042%=      5-min Rain = 0
KFL1 101642Z 27004KT 24/10 A3051 RMK A01 T02410101  RH  041%=      5-min Rain = 0
KFL1 101643Z 30003KT 24/10 A3051 RMK A01 T02410097  RH  040%=      5-min Rain = 0
KFL1 101644Z 35001KT 24/09 A3051 RMK A01 T02380087  RH  038%=      5-min Rain = 0
KFL1 101645Z 22005G10KT 24/10 A3051 RMK A01 T02370099  RH  042%=      5-min Rain = 0
KFL1 101646Z 21004KT 24/10 A3051 RMK A01 T02370102  RH  042%=      5-min Rain = 0
KFL1 101647Z 20005KT 24/10 A3051 RMK A01 T02390104  RH  043%=      5-min Rain = 0
KFL1 101648Z 20007KT 24/10 A3051 RMK A01 T02420098  RH  040%=      5-min Rain = 0
KFL1 101649Z 21005KT 24/09 A3051 RMK A01 T02440093  RH  038%=      5-min Rain = 0
KFL1 101650Z 22004KT 24/10 A3051 RMK A01 T02440096  RH  039%=      5-min Rain = 0
KFL1 101651Z 25002KT 24/10 A3051 RMK A01 T02440095  RH  039%=      5-min Rain = 0
KFL1 101652Z 22003KT 24/09 A3051 RMK A01 T02430087  RH  037%=      5-min Rain = 0
KFL1 101653Z 22004KT 24/10 A3051 RMK A01 T02410099  RH  041%=      5-min Rain = 0
KFL1 101654Z 23004KT 24/10 A3051 RMK A01 T02440100  RH  040%=      5-min Rain = 0
KFL1 101655Z 24003KT 24/09 A3051 RMK A01 T02430094  RH  039%=      5-min Rain = 0
KFL1 101656Z 18002KT 24/10 A305 RMK A01 T02430096  RH  039%=      5-min Rain = 0
KFL1 101657Z 19003KT 25/09 A305 RMK A01 T02450093  RH  038%=      5-min Rain = 0
KFL1 101658Z 15007KT 25/10 A305 RMK A01 T02470100  RH  040%=      5-min Rain = 0
KFL1 101659Z 15007KT 25/09 A305 RMK A01 T02480093  RH  037%=      5-min Rain = 0
KFL1 101700Z 16007KT 25/10 A305 RMK A01 T02480096  RH  038%=      5-min Rain = 0
KFL1 101701Z 16005KT 25/09 A305 RMK A01 T02470093  RH  038%=      5-min Rain = 0
KFL1 101702Z 17005KT 25/10 A305 RMK A01 T02450100  RH  040%=      5-min Rain = 0
KFL1 101703Z 23003KT 25/10 A305 RMK A01 T02490103  RH  040%=      5-min Rain = 0
KFL1 101704Z 14002KT 25/10 A305 RMK A01 T02530097  RH  037%=      5-min Rain = 0
KFL1 101705Z 14005KT 25/09 A305 RMK A01 T02520092  RH  036%=      5-min Rain = 0
KFL1 101706Z 14004KT 25/09 A305 RMK A01 T02490094  RH  037%=      5-min Rain = 0
KFL1 101707Z 16007KT 25/10 A305 RMK A01 T02490095  RH  038%=      5-min Rain = 0
KFL1 101708Z 16006KT 25/09 A305 RMK A01 T02480092  RH  037%=      5-min Rain = 0
KFL1 101709Z 14004KT 25/09 A305 RMK A01 T02480087  RH  036%=      5-min Rain = 0
KFL1 101710Z 15004KT 25/09 A305 RMK A01 T02460090  RH  037%=      5-min Rain = 0
KFL1 101711Z 13004KT 24/09 A305 RMK A01 T02440085  RH  036%=      5-min Rain = 0
KFL1 101712Z 10004KT 24/09 A305 RMK A01 T02430085  RH  037%=      5-min Rain = 0
KFL1 101713Z 14002KT 24/09 A305 RMK A01 T02400088  RH  038%=      5-min Rain = 0
KFL1 101714Z 15004KT 24/09 A305 RMK A01 T02390091  RH  039%=      5-min Rain = 0
KFL1 101715Z 16004KT 24/09 A305 RMK A01 T02410091  RH  038%=      5-min Rain = 0
KFL1 101716Z 01001KT 24/09 A305 RMK A01 T02420087  RH  037%=      5-min Rain = 0
KFL1 101717Z 19001KT 24/10 A305 RMK A01 T02410096  RH  040%=      5-min Rain = 0
KFL1 101718Z 18004KT 25/11 A3049 RMK A01 T02460105  RH  041%=      5-min Rain = 0
KFL1 101719Z 21004KT 25/10 A305 RMK A01 T02500101  RH  039%=      5-min Rain = 0
KFL1 101720Z 21006KT 26/10 A3049 RMK A01 T02550102  RH  038%=      5-min Rain = 0
KFL1 101721Z 18005KT 26/10 A305 RMK A01 T02560102  RH  038%=      5-min Rain = 0
KFL1 101722Z 16003KT 26/10 A305 RMK A01 T02580097  RH  036%=      5-min Rain = 0
KFL1 101723Z 11005KT 26/09 A3049 RMK A01 T02550092  RH  036%=      5-min Rain = 0
KFL1 101724Z 08005KT 25/09 A3049 RMK A01 T02500092  RH  037%=      5-min Rain = 0
KFL1 101725Z 09004KT 25/09 A3049 RMK A01 T02460091  RH  037%=      5-min Rain = 0
KFL1 101726Z 16006KT 25/09 A3049 RMK A01 T02450094  RH  038%=      5-min Rain = 0
KFL1 101727Z 15007KT 25/10 A3049 RMK A01 T02450097  RH  039%=      5-min Rain = 0
KFL1 101728Z 15006KT 25/09 A3049 RMK A01 T02470093  RH  038%=      5-min Rain = 0
KFL1 101729Z 15006KT 25/10 A3049 RMK A01 T02470095  RH  038%=      5-min Rain = 0
KFL1 101730Z 15005KT 25/10 A3049 RMK A01 T02470097  RH  038%=      5-min Rain = 0
KFL1 101731Z 18007KT 25/10 A3049 RMK A01 T02500100  RH  039%=      5-min Rain = 0
KFL1 101732Z 17005KT 25/10 A3049 RMK A01 T02540100  RH  038%=      5-min Rain = 0
KFL1 101733Z 19009KT 25/10 A3049 RMK A01 T02540101  RH  038%=      5-min Rain = 0
KFL1 101734Z 19010KT 26/10 A3049 RMK A01 T02560098  RH  037%=      5-min Rain = 0
KFL1 101735Z 18008KT 26/10 A3049 RMK A01 T02550096  RH  037%=      5-min Rain = 0
KFL1 101736Z 17009KT 25/09 A3049 RMK A01 T02540094  RH  036%=      5-min Rain = 0
KFL1 101737Z 18008KT 25/10 A3049 RMK A01 T02540098  RH  037%=      5-min Rain = 0
KFL1 101738Z 15003KT 25/10 A3049 RMK A01 T02540098  RH  037%=      5-min Rain = 0
KFL1 101739Z 17004KT 25/10 A3049 RMK A01 T02540101  RH  038%=      5-min Rain = 0
KFL1 101740Z 16005KT 26/10 A3049 RMK A01 T02570104  RH  038%=      5-min Rain = 0
KFL1 101741Z 16005KT 26/11 A3049 RMK A01 T02610105  RH  037%=      5-min Rain = 0
KFL1 101742Z 17007KT 26/10 A3049 RMK A01 T02640104  RH  037%=      5-min Rain = 0
KFL1 101743Z 17005KT 26/10 A3049 RMK A01 T02620095  RH  035%=      5-min Rain = 0
KFL1 101744Z 15004KT 26/09 A3049 RMK A01 T02590093  RH  035%=      5-min Rain = 0
KFL1 101745Z 09004KT 26/09 A3049 RMK A01 T02560094  RH  036%=      5-min Rain = 0
KFL1 101746Z 19002G7KT 26/10 A3049 RMK A01 T02550095  RH  036%=      5-min Rain = 0
KFL1 101747Z 18006KT 26/10 A3049 RMK A01 T02550098  RH  037%=      5-min Rain = 0
KFL1 101748Z 19004KT 26/10 A3049 RMK A01 T02590102  RH  037%=      5-min Rain = 0
KFL1 101749Z 17007KT 26/10 A3049 RMK A01 T02620098  RH  036%=      5-min Rain = 0
KFL1 101750Z 18005KT 26/10 A3049 RMK A01 T02600103  RH  037%=      5-min Rain = 0
KFL1 101751Z 18007KT 27/10 A3049 RMK A01 T02650104  RH  036%=      5-min Rain = 0
KFL1 101752Z 16005KT 27/10 A3049 RMK A01 T02670101  RH  035%=      5-min Rain = 0
KFL1 101753Z 18005KT 27/10 A3048 RMK A01 T02660096  RH  034%=      5-min Rain = 0
KFL1 101754Z 20003KT 26/09 A3048 RMK A01 T02640091  RH  034%=      5-min Rain = 0
KFL1 101755Z 14003KT 26/09 A3048 RMK A01 T02600093  RH  035%=      5-min Rain = 0
KFL1 101756Z 17004KT 26/10 A3048 RMK A01 T02580095  RH  036%=      5-min Rain = 0
KFL1 101757Z 15005KT 26/09 A3048 RMK A01 T02570094  RH  036%=      5-min Rain = 0
KFL1 101758Z 15004KT 25/09 A3048 RMK A01 T02520086  RH  035%=      5-min Rain = 0
KFL1 101759Z 14002KT 25/09 A3048 RMK A01 T02450085  RH  036%=      5-min Rain = 0
KFL1 101800Z 22003KT 24/09 A3048 RMK A01 T02440093  RH  038%=      5-min Rain = 0
KFL1 101801Z 20004KT 25/10 A3048 RMK A01 T02450099  RH  040%=      5-min Rain = 0
KFL1 101802Z 20004KT 25/10 A3048 RMK A01 T02520099  RH  038%=      5-min Rain = 0
KFL1 101803Z 18002KT 26/10 A3048 RMK A01 T02570101  RH  038%=      5-min Rain = 0
KFL1 101804Z 17004KT 26/10 A3048 RMK A01 T02600095  RH  035%=      5-min Rain = 0
KFL1 101805Z 14003KT 26/09 A3048 RMK A01 T02590091  RH  035%=      5-min Rain = 0
KFL1 101806Z 21003KT 26/10 A3048 RMK A01 T02570096  RH  036%=      5-min Rain = 0
KFL1 101807Z 25004KT 26/10 A3048 RMK A01 T02580101  RH  037%=      5-min Rain = 0
KFL1 101808Z 36001KT 26/10 A3048 RMK A01 T02590095  RH  036%=      5-min Rain = 0
KFL1 101809Z 15002KT 26/10 A3048 RMK A01 T02580096  RH  036%=      5-min Rain = 0
KFL1 101810Z 15002KT 26/09 A3048 RMK A01 T02590093  RH  035%=      5-min Rain = 0
KFL1 101811Z 18002KT 26/09 A3048 RMK A01 T02570092  RH  035%=      5-min Rain = 0
KFL1 101812Z 15004KT 26/09 A3048 RMK A01 T02560092  RH  036%=      5-min Rain = 0
KFL1 101813Z 16003KT 26/09 A3048 RMK A01 T02550093  RH  036%=      5-min Rain = 0
KFL1 101814Z 16001KT 26/09 A3048 RMK A01 T02550091  RH  035%=      5-min Rain = 0
KFL1 101815Z 13001KT 26/10 A3048 RMK A01 T02550097  RH  037%=      5-min Rain = 0
KFL1 101816Z 17004G9KT 26/10 A3048 RMK A01 T02570097  RH  036%=      5-min Rain = 0
KFL1 101817Z 19009KT 26/10 A3048 RMK A01 T02590096  RH  036%=      5-min Rain = 0
KFL1 101818Z 18005KT 26/10 A3048 RMK A01 T02610098  RH  036%=      5-min Rain = 0
KFL1 101819Z 17006KT 26/10 A3048 RMK A01 T02610102  RH  037%=      5-min Rain = 0
KFL1 101820Z 17006KT 26/10 A3048 RMK A01 T02610098  RH  036%=      5-min Rain = 0
KFL1 101821Z 17005KT 26/10 A3048 RMK A01 T02600096  RH  036%=      5-min Rain = 0
KFL1 101822Z 18004KT 26/10 A3048 RMK A01 T02600096  RH  036%=      5-min Rain = 0
KFL1 101823Z 19005KT 26/10 A3047 RMK A01 T02590096  RH  036%=      5-min Rain = 0
KFL1 101824Z 21005KT 26/09 A3047 RMK A01 T02590091  RH  035%=      5-min Rain = 0
KFL1 101825Z 23003KT 26/09 A3047 RMK A01 T02590087  RH  034%=      5-min Rain = 0
KFL1 101826Z 22006KT 26/10 A3047 RMK A01 T02560095  RH  036%=      5-min Rain = 0
KFL1 101827Z 24004KT 26/09 A3047 RMK A01 T02560091  RH  035%=      5-min Rain = 0
KFL1 101828Z 21007KT 26/10 A3047 RMK A01 T02560097  RH  037%=      5-min Rain = 0
KFL1 101829Z 22005KT 26/10 A3047 RMK A01 T02570097  RH  036%=      5-min Rain = 0
KFL1 101830Z 25004KT 26/10 A3047 RMK A01 T02570095  RH  036%=      5-min Rain = 0
KFL1 101831Z 23006KT 26/10 A3047 RMK A01 T02580100  RH  037%=      5-min Rain = 0
KFL1 101832Z 24006KT 26/10 A3047 RMK A01 T02590100  RH  037%=      5-min Rain = 0
KFL1 101833Z 22006KT 26/11 A3047 RMK A01 T02610105  RH  038%=      5-min Rain = 0
KFL1 101834Z 24005KT 26/10 A3047 RMK A01 T02620097  RH  035%=      5-min Rain = 0
KFL1 101835Z 26005KT 26/10 A3047 RMK A01 T02620098  RH  035%=      5-min Rain = 0
KFL1 101836Z 27002KT 26/10 A3046 RMK A01 T02590095  RH  036%=      5-min Rain = 0
KFL1 101837Z 14004KT 26/10 A3046 RMK A01 T02620096  RH  035%=      5-min Rain = 0
KFL1 101838Z 15003KT 26/09 A3047 RMK A01 T02600093  RH  035%=      5-min Rain = 0
KFL1 101839Z 10001KT 26/10 A3046 RMK A01 T02580096  RH  036%=      5-min Rain = 0
KFL1 101840Z 14002KT 26/10 A3046 RMK A01 T02610099  RH  036%=      5-min Rain = 0
KFL1 101841Z 15003KT 26/09 A3046 RMK A01 T02630093  RH  034%=      5-min Rain = 0
KFL1 101842Z 15001KT 26/10 A3046 RMK A01 T02640098  RH  035%=      5-min Rain = 0
KFL1 101843Z 15001KT 27/10 A3046 RMK A01 T02670100  RH  035%=      5-min Rain = 0
KFL1 101844Z 15004KT 27/10 A3046 RMK A01 T02670099  RH  035%=      5-min Rain = 0
KFL1 101845Z 15008KT 27/10 A3046 RMK A01 T02670099  RH  035%=      5-min Rain = 0
KFL1 101846Z 13005KT 27/10 A3046 RMK A01 T02670095  RH  034%=      5-min Rain = 0
KFL1 101847Z 11005KT 26/10 A3046 RMK A01 T02640095  RH  034%=      5-min Rain = 0
KFL1 101848Z 12004KT 26/10 A3046 RMK A01 T02630099  RH  036%=      5-min Rain = 0
KFL1 101849Z 16006KT 27/10 A3046 RMK A01 T02660104  RH  036%=      5-min Rain = 0
KFL1 101850Z 19006KT 27/10 A3046 RMK A01 T02690095  RH  033%=      5-min Rain = 0
KFL1 101851Z 20005KT 27/10 A3046 RMK A01 T02680097  RH  034%=      5-min Rain = 0
KFL1 101852Z 17004KT 27/09 A3046 RMK A01 T02690093  RH  033%=      5-min Rain = 0
KFL1 101853Z 15004KT 27/10 A3046 RMK A01 T02650095  RH  034%=      5-min Rain = 0
KFL1 101854Z 17004KT 27/10 A3046 RMK A01 T02650098  RH  035%=      5-min Rain = 0
KFL1 101855Z 15003KT 27/10 A3046 RMK A01 T02670096  RH  034%=      5-min Rain = 0
KFL1 101856Z 15005KT 27/10 A3046 RMK A01 T02680095  RH  034%=      5-min Rain = 0
KFL1 101857Z 15003KT 27/10 A3046 RMK A01 T02670097  RH  034%=      5-min Rain = 0
KFL1 101858Z 18002KT 27/10 A3046 RMK A01 T02680103  RH  036%=      5-min Rain = 0
KFL1 101859Z 22002KT 27/09 A3046 RMK A01 T02710093  RH  033%=      5-min Rain = 0
KFL1 101900Z 24007KT 27/10 A3046 RMK A01 T02710101  RH  035%=      5-min Rain = 0
KFL1 101901Z 25007KT 27/10 A3046 RMK A01 T02680103  RH  035%=      5-min Rain = 0
KFL1 101902Z 24007KT 27/11 A3046 RMK A01 T02660113  RH  038%=      5-min Rain = 0
KFL1 101903Z 22010G15KT 27/10 A3046 RMK A01 T02690104  RH  036%=      5-min Rain = 0
KFL1 101904Z 22006KT 27/10 A3045 RMK A01 T02690096  RH  034%=      5-min Rain = 0
KFL1 101905Z 22006KT 27/10 A3045 RMK A01 T02700099  RH  034%=      5-min Rain = 0
KFL1 101906Z 23004KT 27/10 A3045 RMK A01 T02690102  RH  035%=      5-min Rain = 0
KFL1 101907Z 24007G12KT 27/11 A3045 RMK A01 T02700110  RH  037%=      5-min Rain = 0
KFL1 101908Z 23007KT 28/11 A3045 RMK A01 T02750111  RH  036%=      5-min Rain = 0
KFL1 101909Z 24005KT 27/10 A3045 RMK A01 T02720096  RH  033%=      5-min Rain = 0
KFL1 101910Z 19003KT 27/10 A3045 RMK A01 T02690099  RH  034%=      5-min Rain = 0
KFL1 101911Z 17006KT 27/10 A3045 RMK A01 T02710103  RH  035%=      5-min Rain = 0
KFL1 101912Z 20006KT 27/10 A3045 RMK A01 T02730103  RH  034%=      5-min Rain = 0
KFL1 101913Z 17004KT 28/10 A3045 RMK A01 T02760103  RH  034%=      5-min Rain = 0
KFL1 101914Z 15002KT 28/10 A3045 RMK A01 T02750096  RH  033%=      5-min Rain = 0
KFL1 101915Z 15004KT 27/10 A3045 RMK A01 T02710096  RH  033%=      5-min Rain = 0
KFL1 101916Z 16006KT 27/10 A3045 RMK A01 T02700097  RH  034%=      5-min Rain = 0
KFL1 101917Z 15005KT 27/09 A3045 RMK A01 T02700094  RH  033%=      5-min Rain = 0
KFL1 101918Z 17005G10KT 27/09 A3045 RMK A01 T02670093  RH  033%=      5-min Rain = 0
KFL1 101919Z 19008KT 27/10 A3045 RMK A01 T02660095  RH  034%=      5-min Rain = 0
KFL1 101920Z 21008KT 27/10 A3045 RMK A01 T02700101  RH  035%=      5-min Rain = 0
KFL1 101921Z 20007KT 27/10 A3045 RMK A01 T02720095  RH  033%=      5-min Rain = 0
KFL1 101922Z 20006KT 27/09 A3045 RMK A01 T02720094  RH  033%=      5-min Rain = 0
KFL1 101923Z 21006KT 27/10 A3045 RMK A01 T02730097  RH  033%=      5-min Rain = 0
KFL1 101924Z 20004KT 27/09 A3045 RMK A01 T02730092  RH  032%=      5-min Rain = 0
KFL1 101925Z 26002KT 27/10 A3044 RMK A01 T02720095  RH  033%=      5-min Rain = 0
KFL1 101926Z 23003KT 27/09 A3044 RMK A01 T02710093  RH  033%=      5-min Rain = 0
KFL1 101927Z 28002KT 27/09 A3044 RMK A01 T02700091  RH  032%=      5-min Rain = 0
KFL1 101928Z 29004KT 27/10 A3044 RMK A01 T02700098  RH  034%=      5-min Rain = 0
KFL1 101929Z 22003KT 27/10 A3044 RMK A01 T02720103  RH  035%=      5-min Rain = 0
KFL1 101930Z 20004KT 28/10 A3044 RMK A01 T02760100  RH  033%=      5-min Rain = 0
KFL1 101931Z 17006KT 28/10 A3044 RMK A01 T02760098  RH  033%=      5-min Rain = 0
KFL1 101932Z 16005KT 28/10 A3044 RMK A01 T02770097  RH  032%=      5-min Rain = 0
KFL1 101933Z 23005G11KT 28/10 A3044 RMK A01 T02770099  RH  033%=      5-min Rain = 0
KFL1 101934Z 25009KT 27/11 A3044 RMK A01 T02740106  RH  035%=      5-min Rain = 0
KFL1 101935Z 23005KT 27/10 A3044 RMK A01 T02720101  RH  034%=      5-min Rain = 0
KFL1 101936Z 21006KT 27/10 A3044 RMK A01 T02720101  RH  034%=      5-min Rain = 0
KFL1 101937Z 24007KT 27/10 A3043 RMK A01 T02730104  RH  035%=      5-min Rain = 0
KFL1 101938Z 24005KT 28/11 A3043 RMK A01 T02770110  RH  035%=      5-min Rain = 0
KFL1 101939Z 21007KT 28/10 A3043 RMK A01 T02770104  RH  034%=      5-min Rain = 0
KFL1 101940Z 22006KT 28/10 A3043 RMK A01 T02780099  RH  033%=      5-min Rain = 0
KFL1 101941Z 22005KT 28/10 A3043 RMK A01 T02760096  RH  032%=      5-min Rain = 0
KFL1 101942Z 20007KT 28/10 A3043 RMK A01 T02750100  RH  033%=      5-min Rain = 0
KFL1 101943Z 23004KT 28/09 A3043 RMK A01 T02760094  RH  032%=      5-min Rain = 0
KFL1 101944Z 19005KT 28/10 A3043 RMK A01 T02770102  RH  034%=      5-min Rain = 0
KFL1 101945Z 20005KT 28/11 A3043 RMK A01 T02810105  RH  033%=      5-min Rain = 0
KFL1 101946Z 19007KT 29/10 A3043 RMK A01 T02860101  RH  032%=      5-min Rain = 0
KFL1 101947Z 18006KT 29/10 A3043 RMK A01 T02890102  RH  031%=      5-min Rain = 0
KFL1 101948Z 17009KT 29/10 A3043 RMK A01 T02850095  RH  030%=      5-min Rain = 0
KFL1 101949Z 20006G12KT 28/10 A3043 RMK A01 T02820096  RH  031%=      5-min Rain = 0
KFL1 101950Z 19005G10KT 28/09 A3043 RMK A01 T02780094  RH  032%=      5-min Rain = 0
KFL1 101951Z 21007KT 28/10 A3043 RMK A01 T02790101  RH  033%=      5-min Rain = 0
KFL1 101952Z 23004KT 28/09 A3043 RMK A01 T02820094  RH  031%=      5-min Rain = 0
KFL1 101953Z 19002KT 28/09 A3042 RMK A01 T02800093  RH  031%=      5-min Rain = 0
KFL1 101954Z 03000KT 28/09 A3042 RMK A01 T02800093  RH  031%=      5-min Rain = 0
KFL1 101955Z 20002G8KT 28/10 A3042 RMK A01 T02790098  RH  032%=      5-min Rain = 0
KFL1 101956Z 21007KT 28/10 A3042 RMK A01 T02840099  RH  031%=      5-min Rain = 0
KFL1 101957Z 18007KT 29/10 A3042 RMK A01 T02850098  RH  031%=      5-min Rain = 0
KFL1 101958Z 17004KT 28/09 A3042 RMK A01 T02840090  RH  030%=      5-min Rain = 0
KFL1 101959Z 20004KT 28/09 A3042 RMK A01 T02790091  RH  031%=      5-min Rain = 0
KFL1 102000Z 20003KT 28/09 A3042 RMK A01 T02780089  RH  030%=      5-min Rain = 0
KFL1 102001Z 18004KT 28/10 A3042 RMK A01 T02760097  RH  032%=      5-min Rain = 0
KFL1 102002Z 17006KT 28/10 A3042 RMK A01 T02780097  RH  032%=      5-min Rain = 0
KFL1 102003Z 19006KT 28/09 A3042 RMK A01 T02780093  RH  031%=      5-min Rain = 0
KFL1 102004Z 11002KT 28/09 A3042 RMK A01 T02760086  RH  030%=      5-min Rain = 0
KFL1 102005Z 16002KT 27/09 A3042 RMK A01 T02710089  RH  032%=      5-min Rain = 0
KFL1 102006Z 17006KT 27/10 A3042 RMK A01 T02720097  RH  033%=      5-min Rain = 0
KFL1 102007Z 15005KT 28/10 A3042 RMK A01 T02760096  RH  032%=      5-min Rain = 0
KFL1 102008Z 15007KT 28/10 A3041 RMK A01 T02800098  RH  032%=      5-min Rain = 0
KFL1 102009Z 17006KT 29/10 A3041 RMK A01 T02850104  RH  033%=      5-min Rain = 0
KFL1 102010Z 19004KT 29/10 A3042 RMK A01 T02890102  RH  031%=      5-min Rain = 0
KFL1 102011Z 20005KT 29/10 A3041 RMK A01 T02920100  RH  030%=      5-min Rain = 0
KFL1 102012Z 24002KT 29/09 A3041 RMK A01 T02910090  RH  029%=      5-min Rain = 0
KFL1 102013Z 18004KT 29/10 A3041 RMK A01 T02900096  RH  030%=      5-min Rain = 0
KFL1 102014Z 16004KT 29/09 A3041 RMK A01 T02890094  RH  030%=      5-min Rain = 0
KFL1 102015Z 19006KT 29/10 A3041 RMK A01 T02860098  RH  031%=      5-min Rain = 0
KFL1 102016Z 20005KT 29/10 A3041 RMK A01 T02890100  RH  031%=      5-min Rain = 0
KFL1 102017Z 22006KT 29/10 A3041 RMK A01 T02890100  RH  031%=      5-min Rain = 0
KFL1 102018Z 23005KT 29/11 A3041 RMK A01 T02920105  RH  031%=      5-min Rain = 0
KFL1 102019Z 22007KT 29/10 A3041 RMK A01 T02900098  RH  030%=      5-min Rain = 0
KFL1 102020Z 22007KT 29/10 A3041 RMK A01 T02890098  RH  030%=      5-min Rain = 0
KFL1 102021Z 21007KT 29/09 A3041 RMK A01 T02880090  RH  029%=      5-min Rain = 0
KFL1 102022Z 21005KT 28/09 A3041 RMK A01 T02840087  RH  029%=      5-min Rain = 0
KFL1 102023Z 24004KT 28/08 A3041 RMK A01 T02800084  RH  029%=      5-min Rain = 0
KFL1 102024Z 23002KT 28/09 A304 RMK A01 T02750085  RH  030%=      5-min Rain = 0
KFL1 102025Z 20005KT 27/09 A304 RMK A01 T02740092  RH  032%=      5-min Rain = 0
KFL1 102026Z 16005KT 28/09 A304 RMK A01 T02760094  RH  032%=      5-min Rain = 0
KFL1 102027Z 17007KT 28/10 A304 RMK A01 T02790101  RH  033%=      5-min Rain = 0
KFL1 102028Z 20006KT 29/10 A304 RMK A01 T02870097  RH  031%=      5-min Rain = 0
KFL1 102029Z 18005KT 29/09 A304 RMK A01 T02860089  RH  029%=      5-min Rain = 0
KFL1 102030Z 19006KT 29/09 A304 RMK A01 T02860091  RH  029%=      5-min Rain = 0
KFL1 102031Z 20006KT 29/09 A304 RMK A01 T02880094  RH  030%=      5-min Rain = 0
KFL1 102032Z 21007KT 29/09 A304 RMK A01 T02880094  RH  030%=      5-min Rain = 0
KFL1 102033Z 22008G13KT 29/10 A304 RMK A01 T02880104  RH  032%=      5-min Rain = 0
KFL1 102034Z 26010KT 29/10 A304 RMK A01 T02860104  RH  032%=      5-min Rain = 0
KFL1 102035Z 25010KT 29/10 A3039 RMK A01 T02870098  RH  031%=      5-min Rain = 0
KFL1 102036Z 24006G11KT 28/09 A3039 RMK A01 T02810092  RH  031%=      5-min Rain = 0
KFL1 102037Z 21004KT 27/08 A3039 RMK A01 T02730084  RH  030%=      5-min Rain = 0
KFL1 102038Z 19005KT 27/09 A3039 RMK A01 T02710090  RH  032%=      5-min Rain = 0
KFL1 102039Z 21003KT 28/09 A3039 RMK A01 T02760090  RH  031%=      5-min Rain = 0
KFL1 102040Z 18002KT 28/09 A3039 RMK A01 T02790090  RH  031%=      5-min Rain = 0
KFL1 102041Z 16005KT 28/09 A3039 RMK A01 T02800093  RH  031%=      5-min Rain = 0
KFL1 102042Z 18005KT 29/10 A3039 RMK A01 T02860097  RH  031%=      5-min Rain = 0
KFL1 102043Z 19008KT 29/10 A3039 RMK A01 T02880095  RH  030%=      5-min Rain = 0
KFL1 102044Z 17005KT 29/09 A3039 RMK A01 T02890094  RH  030%=      5-min Rain = 0
KFL1 102045Z 18006KT 29/09 A3039 RMK A01 T02870091  RH  029%=      5-min Rain = 0
KFL1 102046Z 17008KT 29/09 A3039 RMK A01 T02850093  RH  030%=      5-min Rain = 0
KFL1 102047Z 16007KT 28/09 A3039 RMK A01 T02840090  RH  029%=      5-min Rain = 0
KFL1 102048Z 17005KT 29/10 A3038 RMK A01 T02860095  RH  030%=      5-min Rain = 0
KFL1 102049Z 17005KT 29/09 A3038 RMK A01 T02890093  RH  029%=      5-min Rain = 0
KFL1 102050Z 16007KT 29/09 A3038 RMK A01 T02900090  RH  029%=      5-min Rain = 0
KFL1 102051Z 15007KT 29/09 A3038 RMK A01 T02850088  RH  029%=      5-min Rain = 0
KFL1 102052Z 16007KT 28/09 A3038 RMK A01 T02820090  RH  030%=      5-min Rain = 0
KFL1 102053Z 15008KT 28/09 A3038 RMK A01 T02800087  RH  030%=      5-min Rain = 0
KFL1 102054Z 15006KT 28/09 A3038 RMK A01 T02770089  RH  031%=      5-min Rain = 0
KFL1 102055Z 14006KT 28/09 A3038 RMK A01 T02760092  RH  032%=      5-min Rain = 0
KFL1 102056Z 15006KT 28/09 A3038 RMK A01 T02800090  RH  030%=      5-min Rain = 0
KFL1 102057Z 16008KT 28/09 A3038 RMK A01 T02820094  RH  031%=      5-min Rain = 0
KFL1 102058Z 16008KT 29/09 A3038 RMK A01 T02850094  RH  030%=      5-min Rain = 0
KFL1 102059Z 17007KT 29/09 A3038 RMK A01 T02870092  RH  030%=      5-min Rain = 0
KFL1 102100Z 17007KT 28/09 A3038 RMK A01 T02830093  RH  030%=      5-min Rain = 0
KFL1 102101Z 17009KT 28/10 A3038 RMK A01 T02840096  RH  031%=      5-min Rain = 0
KFL1 102102Z 19007KT 29/10 A3038 RMK A01 T02850098  RH  031%=      5-min Rain = 0
KFL1 102103Z 17006KT 29/10 A3038 RMK A01 T02890096  RH  030%=      5-min Rain = 0
KFL1 102104Z 15007KT 29/09 A3038 RMK A01 T02900094  RH  029%=      5-min Rain = 0
KFL1 102105Z 17011KT 29/09 A3038 RMK A01 T02900091  RH  029%=      5-min Rain = 0
KFL1 102106Z 17010KT 29/09 A3039 RMK A01 T02860090  RH  029%=      5-min Rain = 0
KFL1 102107Z 17006KT 28/09 A3039 RMK A01 T02810087  RH  030%=      5-min Rain = 0
KFL1 102108Z 17005KT 28/09 A3039 RMK A01 T02800086  RH  030%=      5-min Rain = 0
KFL1 102109Z 17005KT 28/09 A3039 RMK A01 T02800086  RH  030%=      5-min Rain = 0
KFL1 102110Z 13003KT 28/08 A3039 RMK A01 T02800082  RH  029%=      5-min Rain = 0
KFL1 102111Z 09003KT 28/09 A3038 RMK A01 T02800087  RH  030%=      5-min Rain = 0
KFL1 102112Z 12005KT 28/09 A3038 RMK A01 T02800089  RH  030%=      5-min Rain = 0
KFL1 102113Z 14005G10KT 28/09 A3038 RMK A01 T02800085  RH  029%=      5-min Rain = 0
KFL1 102114Z 15005KT 28/09 A3038 RMK A01 T02830090  RH  030%=      5-min Rain = 0
KFL1 102115Z 15006KT 28/09 A3038 RMK A01 T02840091  RH  030%=      5-min Rain = 0
KFL1 102116Z 14006KT 29/09 A3038 RMK A01 T02850087  RH  029%=      5-min Rain = 0
KFL1 102117Z 13005KT 29/09 A3038 RMK A01 T02850085  RH  028%=      5-min Rain = 0
KFL1 102118Z 16006KT 28/09 A3038 RMK A01 T02840088  RH  029%=      5-min Rain = 0
KFL1 102119Z 18009KT 29/10 A3038 RMK A01 T02880095  RH  030%=      5-min Rain = 0
KFL1 102120Z 18009KT 29/09 A3038 RMK A01 T02920091  RH  028%=      5-min Rain = 0
KFL1 102121Z 18008KT 29/09 A3038 RMK A01 T02920089  RH  028%=      5-min Rain = 0
KFL1 102122Z 18006KT 29/09 A3038 RMK A01 T02940086  RH  027%=      5-min Rain = 0
KFL1 102123Z 18007KT 30/09 A3038 RMK A01 T02950087  RH  027%=      5-min Rain = 0
KFL1 102124Z 16004KT 30/08 A3038 RMK A01 T02960081  RH  026%=      5-min Rain = 0
KFL1 102125Z 15001KT 29/08 A3038 RMK A01 T02920077  RH  026%=      5-min Rain = 0
KFL1 102126Z 21001KT 29/08 A3038 RMK A01 T02880080  RH  027%=      5-min Rain = 0
KFL1 102127Z 21006KT 29/09 A3038 RMK A01 T02880087  RH  029%=      5-min Rain = 0
KFL1 102128Z 19006KT 29/09 A3038 RMK A01 T02890085  RH  028%=      5-min Rain = 0
KFL1 102129Z 16004KT 29/08 A3038 RMK A01 T02880078  RH  027%=      5-min Rain = 0
KFL1 102130Z 18005G11KT 29/08 A3038 RMK A01 T02850080  RH  028%=      5-min Rain = 0
KFL1 102131Z 22009KT 28/09 A3038 RMK A01 T02830090  RH  030%=      5-min Rain = 0
KFL1 102132Z 22011KT 29/09 A3038 RMK A01 T02860089  RH  029%=      5-min Rain = 0
KFL1 102133Z 21009KT 29/09 A3038 RMK A01 T02890092  RH  029%=      5-min Rain = 0
KFL1 102134Z 18008KT 29/09 A3038 RMK A01 T02910092  RH  029%=      5-min Rain = 0
KFL1 102135Z 17006G11KT 29/09 A3038 RMK A01 T02930090  RH  028%=      5-min Rain = 0
KFL1 102136Z 17009KT 29/09 A3038 RMK A01 T02930093  RH  029%=      5-min Rain = 0
KFL1 102137Z 16009KT 30/09 A3038 RMK A01 T02950093  RH  028%=      5-min Rain = 0
KFL1 102138Z 13005KT 29/08 A3038 RMK A01 T02920082  RH  027%=      5-min Rain = 0
KFL1 102139Z 18004KT 29/09 A3038 RMK A01 T02870090  RH  029%=      5-min Rain = 0
KFL1 102140Z 20006KT 29/09 A3038 RMK A01 T02850094  RH  030%=      5-min Rain = 0
KFL1 102141Z 21005KT 29/09 A3038 RMK A01 T02860088  RH  029%=      5-min Rain = 0
KFL1 102142Z 19007KT 29/09 A3038 RMK A01 T02860090  RH  029%=      5-min Rain = 0
KFL1 102143Z 18011KT 29/09 A3038 RMK A01 T02850088  RH  029%=      5-min Rain = 0
KFL1 102144Z 18008KT 28/08 A3038 RMK A01 T02800079  RH  028%=      5-min Rain = 0
KFL1 102145Z 17005KT 28/08 A3038 RMK A01 T02750079  RH  029%=      5-min Rain = 0
KFL1 102146Z 16004KT 27/08 A3038 RMK A01 T02740082  RH  030%=      5-min Rain = 0
KFL1 102147Z 22005KT 28/08 A3038 RMK A01 T02750082  RH  030%=      5-min Rain = 0
KFL1 102148Z 23008KT 27/09 A3038 RMK A01 T02740090  RH  032%=      5-min Rain = 0
KFL1 102149Z 23008KT 27/08 A3038 RMK A01 T02710083  RH  031%=      5-min Rain = 0
KFL1 102150Z 23004KT 27/09 A3038 RMK A01 T02670088  RH  032%=      5-min Rain = 0
KFL1 102151Z 26006KT 27/09 A3038 RMK A01 T02660090  RH  033%=      5-min Rain = 0
KFL1 102152Z 30003KT 26/08 A3038 RMK A01 T02630081  RH  031%=      5-min Rain = 0
KFL1 102153Z 28004KT 26/08 A3038 RMK A01 T02630083  RH  032%=      5-min Rain = 0
KFL1 102154Z 29008KT 26/09 A3038 RMK A01 T02620086  RH  033%=      5-min Rain = 0
KFL1 102155Z 31011KT 26/08 A3038 RMK A01 T02620076  RH  031%=      5-min Rain = 0
KFL1 102156Z 29009KT 26/08 A3038 RMK A01 T02610075  RH  031%=      5-min Rain = 0
KFL1 102157Z 31007KT 26/08 A3038 RMK A01 T02600079  RH  032%=      5-min Rain = 0
KFL1 102158Z 27006KT 26/08 A3038 RMK A01 T02590083  RH  033%=      5-min Rain = 0
KFL1 102159Z 29009KT 26/09 A3038 RMK A01 T02580085  RH  033%=      5-min Rain = 0
KFL1 102200Z 31014G19KT 26/08 A3039 RMK A01 T02560080  RH  033%=      5-min Rain = 0
KFL1 102201Z 33018G23KT 26/07 A3039 RMK A01 T02560074  RH  031%=      5-min Rain = 0
KFL1 102202Z 34019KT 25/07 A3039 RMK A01 T02510072  RH  032%=      5-min Rain = 0
KFL1 102203Z 35017G23KT 24/07 A3039 RMK A01 T02430071  RH  033%=      5-min Rain = 0
KFL1 102204Z 35022KT 24/07 A3039 RMK A01 T02370071  RH  034%=      5-min Rain = 0
KFL1 102205Z 35020KT 23/07 A3039 RMK A01 T02310071  RH  036%=      5-min Rain = 0
KFL1 102206Z 36018G23KT 23/07 A3039 RMK A01 T02280072  RH  037%=      5-min Rain = 0
KFL1 102207Z 36016KT 23/07 A3039 RMK A01 T02280074  RH  037%=      5-min Rain = 0
KFL1 102208Z 01015KT 23/07 A3039 RMK A01 T02260074  RH  038%=      5-min Rain = 0
KFL1 102209Z 01016KT 23/08 A3039 RMK A01 T02260077  RH  038%=      5-min Rain = 0
KFL1 102210Z 01018G23KT 22/08 A3039 RMK A01 T02240075  RH  038%=      5-min Rain = 0
KFL1 102211Z 01019KT 22/08 A3039 RMK A01 T02230077  RH  039%=      5-min Rain = 0
KFL1 102212Z 01017KT 22/08 A304 RMK A01 T02220082  RH  041%=      5-min Rain = 0
KFL1 102213Z 01021KT 22/08 A304 RMK A01 T02170083  RH  042%=      5-min Rain = 0
KFL1 102214Z 02019KT 21/09 A304 RMK A01 T02140090  RH  045%=      5-min Rain = 0
KFL1 102215Z 02019G25KT 21/10 A304 RMK A01 T02090096  RH  048%=      5-min Rain = 0
KFL1 102216Z 01018KT 20/10 A304 RMK A01 T02030103  RH  053%=      5-min Rain = 0
KFL1 102217Z 36019KT 20/11 A3039 RMK A01 T01960110  RH  058%=      5-min Rain = 0
KFL1 102218Z 36021G26KT 19/12 A3039 RMK A01 T01910118  RH  063%=      5-min Rain = 0.01
KFL1 102219Z 00026KT 18/12 A3039 RMK A01 T01790116  RH  066%=      5-min Rain = 0
KFL1 102220Z 36030KT 17/11 A3039 RMK A01 T01680112  RH  069%=      5-min Rain = 0.01
KFL1 102221Z 36026KT 16/11 A3039 RMK A01 T01640110  RH  070%=      5-min Rain = 0
KFL1 102222Z 35028KT 16/11 A3039 RMK A01 T01620110  RH  071%=      5-min Rain = 0
KFL1 102223Z 34024KT 16/11 A3039 RMK A01 T01560110  RH  074%=      5-min Rain = 0.01
KFL1 102224Z 34022KT 15/11 A304 RMK A01 T01540112  RH  076%=      5-min Rain = 0.01
KFL1 102225Z 34019KT 15/11 A304 RMK A01 T01510112  RH  078%=      5-min Rain = 0
KFL1 102226Z 35018KT 15/11 A304 RMK A01 T01490112  RH  079%=      5-min Rain = 0
KFL1 102227Z 36021KT 15/11 A304 RMK A01 T01470111  RH  079%=      5-min Rain = 0.01
KFL1 102228Z 36019KT 15/11 A304 RMK A01 T01490110  RH  078%=      5-min Rain = 0
KFL1 102229Z 36017KT 15/11 A304 RMK A01 T01500110  RH  077%=      5-min Rain = 0
KFL1 102230Z 34017KT 15/11 A304 RMK A01 T01520111  RH  076%=      5-min Rain = 0
KFL1 102231Z 35017KT 15/11 A3039 RMK A01 T01500106  RH  075%=      5-min Rain = 0
KFL1 102232Z 35015KT 15/11 A3039 RMK A01 T01510109  RH  076%=      5-min Rain = 0
KFL1 102233Z 00015KT 15/11 A3039 RMK A01 T01510112  RH  077%=      5-min Rain = 0
KFL1 102234Z 35017KT 15/11 A3039 RMK A01 T01490113  RH  079%=      5-min Rain = 0.01
KFL1 102235Z 34018KT 15/11 A3039 RMK A01 T01480110  RH  078%=      5-min Rain = 0
KFL1 102236Z 34016KT 15/11 A3039 RMK A01 T01480108  RH  077%=      5-min Rain = 0
KFL1 102237Z 34013KT 15/11 A3039 RMK A01 T01490109  RH  077%=      5-min Rain = 0
KFL1 102238Z 33015KT 15/11 A3039 RMK A01 T01480112  RH  079%=      5-min Rain = 0
KFL1 102239Z 33014KT 15/11 A3039 RMK A01 T01470113  RH  080%=      5-min Rain = 0
KFL1 102240Z 32015KT 15/12 A3039 RMK A01 T01450115  RH  082%=      5-min Rain = 0
KFL1 102241Z 33016KT 14/11 A3039 RMK A01 T01430114  RH  083%=      5-min Rain = 0
KFL1 102242Z 33018KT 14/11 A3039 RMK A01 T01410113  RH  084%=      5-min Rain = 0
KFL1 102243Z 33014KT 14/11 A3038 RMK A01 T01400113  RH  084%=      5-min Rain = 0
KFL1 102244Z 33015KT 14/11 A3038 RMK A01 T01420114  RH  083%=      5-min Rain = 0
KFL1 102245Z 33013KT 14/11 A3038 RMK A01 T01410114  RH  084%=      5-min Rain = 0
KFL1 102246Z 33013KT 14/11 A3038 RMK A01 T01400112  RH  084%=      5-min Rain = 0
KFL1 102247Z 34013KT 14/12 A3038 RMK A01 T01410115  RH  084%=      5-min Rain = 0
KFL1 102248Z 34011KT 14/12 A3038 RMK A01 T01420115  RH  084%=      5-min Rain = 0
KFL1 102249Z 35010KT 14/12 A3038 RMK A01 T01440116  RH  083%=      5-min Rain = 0
KFL1 102250Z 36011KT 15/12 A3038 RMK A01 T01470116  RH  082%=      5-min Rain = 0
KFL1 102251Z 01011KT 15/12 A3038 RMK A01 T01480116  RH  081%=      5-min Rain = 0
KFL1 102252Z 01010KT 15/12 A3038 RMK A01 T01500118  RH  081%=      5-min Rain = 0
KFL1 102253Z 01010KT 15/12 A3038 RMK A01 T01500118  RH  081%=      5-min Rain = 0
KFL1 102254Z 01011KT 15/12 A3038 RMK A01 T01520118  RH  080%=      5-min Rain = 0
KFL1 102255Z 00011KT 15/12 A3038 RMK A01 T01540118  RH  079%=      5-min Rain = 0
KFL1 102256Z 00010KT 16/12 A3037 RMK A01 T01560120  RH  079%=      5-min Rain = 0
KFL1 102257Z 01009KT 16/12 A3037 RMK A01 T01580121  RH  079%=      5-min Rain = 0
KFL1 102258Z 01008KT 16/12 A3037 RMK A01 T01600120  RH  077%=      5-min Rain = 0
KFL1 102259Z 00008KT 16/12 A3037 RMK A01 T01610121  RH  077%=      5-min Rain = 0
KFL1 102300Z 35007KT 16/12 A3037 RMK A01 T01610123  RH  078%=      5-min Rain = 0
KFL1 102301Z 36007KT 16/12 A3037 RMK A01 T01620121  RH  077%=      5-min Rain = 0
KFL1 102302Z 36007KT 16/12 A3037 RMK A01 T01620122  RH  077%=      5-min Rain = 0
KFL1 102303Z 35008KT 16/12 A3037 RMK A01 T01630124  RH  078%=      5-min Rain = 0
KFL1 102304Z 36008KT 16/13 A3037 RMK A01 T01620125  RH  078%=      5-min Rain = 0
KFL1 102305Z 35008KT 16/13 A3037 RMK A01 T01640127  RH  079%=      5-min Rain = 0
KFL1 102306Z 35009KT 16/12 A3037 RMK A01 T01620124  RH  078%=      5-min Rain = 0
KFL1 102307Z 35009KT 16/12 A3036 RMK A01 T01620124  RH  078%=      5-min Rain = 0
KFL1 102308Z 34010KT 16/12 A3036 RMK A01 T01610124  RH  078%=      5-min Rain = 0
KFL1 102309Z 33010KT 16/12 A3036 RMK A01 T01610124  RH  079%=      5-min Rain = 0
KFL1 102310Z 33012KT 16/12 A3035 RMK A01 T01600124  RH  079%=      5-min Rain = 0
KFL1 102311Z 32011KT 16/12 A3035 RMK A01 T01590121  RH  078%=      5-min Rain = 0
KFL1 102312Z 32010KT 16/12 A3035 RMK A01 T01590121  RH  078%=      5-min Rain = 0
KFL1 102313Z 32009KT 16/12 A3035 RMK A01 T01580123  RH  079%=      5-min Rain = 0
KFL1 102314Z 32007KT 16/12 A3035 RMK A01 T01590123  RH  079%=      5-min Rain = 0
KFL1 102315Z 33006KT 16/13 A3035 RMK A01 T01590125  RH  080%=      5-min Rain = 0
KFL1 102316Z 02003KT 16/13 A3035 RMK A01 T01610127  RH  080%=      5-min Rain = 0
KFL1 102317Z 08003KT 16/13 A3035 RMK A01 T01610131  RH  082%=      5-min Rain = 0
KFL1 102318Z 06004KT 16/13 A3035 RMK A01 T01610126  RH  080%=      5-min Rain = 0
KFL1 102319Z 01003KT 16/12 A3035 RMK A01 T01610123  RH  078%=      5-min Rain = 0
KFL1 102320Z 32005KT 16/12 A3035 RMK A01 T01610121  RH  077%=      5-min Rain = 0
KFL1 102321Z 30005KT 16/13 A3034 RMK A01 T01630127  RH  080%=      5-min Rain = 0
KFL1 102322Z 29006KT 16/13 A3034 RMK A01 T01620126  RH  079%=      5-min Rain = 0
KFL1 102323Z 28006KT 16/12 A3034 RMK A01 T01620124  RH  078%=      5-min Rain = 0
KFL1 102324Z 30004KT 16/13 A3034 RMK A01 T01620127  RH  080%=      5-min Rain = 0
KFL1 102325Z 08006KT 16/13 A3035 RMK A01 T01610130  RH  082%=      5-min Rain = 0
KFL1 102326Z 09009KT 16/13 A3035 RMK A01 T01620133  RH  083%=      5-min Rain = 0
KFL1 102327Z 09012KT 16/13 A3035 RMK A01 T01620132  RH  083%=      5-min Rain = 0
KFL1 102328Z 07009G14KT 16/13 A3035 RMK A01 T01620125  RH  078%=      5-min Rain = 0
KFL1 102329Z 05007KT 16/12 A3034 RMK A01 T01630117  RH  074%=      5-min Rain = 0
KFL1 102330Z 07007KT 17/11 A3034 RMK A01 T01660110  RH  069%=      5-min Rain = 0
KFL1 102331Z 10009G14KT 17/12 A3035 RMK A01 T01700118  RH  071%=      5-min Rain = 0
KFL1 102332Z 07012KT 17/12 A3035 RMK A01 T01700119  RH  072%=      5-min Rain = 0
KFL1 102333Z 06012KT 17/11 A3035 RMK A01 T01710111  RH  068%=      5-min Rain = 0
KFL1 102334Z 05012KT 17/11 A3035 RMK A01 T01730110  RH  066%=      5-min Rain = 0
KFL1 102335Z 05007KT 18/11 A3035 RMK A01 T01760112  RH  066%=      5-min Rain = 0
KFL1 102336Z 05006KT 18/11 A3035 RMK A01 T01750113  RH  067%=      5-min Rain = 0
KFL1 102337Z 06006KT 18/11 A3035 RMK A01 T01750109  RH  065%=      5-min Rain = 0
KFL1 102338Z 06006KT 18/11 A3035 RMK A01 T01750111  RH  066%=      5-min Rain = 0
KFL1 102339Z 06007KT 18/12 A3035 RMK A01 T01760117  RH  068%=      5-min Rain = 0
KFL1 102340Z 07007KT 17/12 A3035 RMK A01 T01730115  RH  069%=      5-min Rain = 0
KFL1 102341Z 08006KT 17/12 A3035 RMK A01 T01730121  RH  071%=      5-min Rain = 0
KFL1 102342Z 09007KT 17/12 A3035 RMK A01 T01720124  RH  073%=      5-min Rain = 0
KFL1 102343Z 10007KT 17/13 A3036 RMK A01 T01710125  RH  074%=      5-min Rain = 0
KFL1 102344Z 09008KT 17/12 A3036 RMK A01 T01700120  RH  072%=      5-min Rain = 0
KFL1 102345Z 07008KT 17/11 A3035 RMK A01 T01690113  RH  070%=      5-min Rain = 0
KFL1 102346Z 06007KT 17/11 A3035 RMK A01 T01700111  RH  068%=      5-min Rain = 0
KFL1 102347Z 04007KT 17/11 A3035 RMK A01 T01720111  RH  067%=      5-min Rain = 0
KFL1 102348Z 04007KT 17/11 A3035 RMK A01 T01730112  RH  067%=      5-min Rain = 0
KFL1 102349Z 04008KT 18/11 A3035 RMK A01 T01750111  RH  066%=      5-min Rain = 0
KFL1 102350Z 03008KT 18/11 A3035 RMK A01 T01750114  RH  067%=      5-min Rain = 0
KFL1 102351Z 03008KT 17/11 A3035 RMK A01 T01740113  RH  067%=      5-min Rain = 0
KFL1 102352Z 04008KT 17/12 A3035 RMK A01 T01740116  RH  068%=      5-min Rain = 0
KFL1 102353Z 05007KT 18/12 A3035 RMK A01 T01750119  RH  070%=      5-min Rain = 0
KFL1 102354Z 07006KT 17/12 A3035 RMK A01 T01730122  RH  072%=      5-min Rain = 0
KFL1 102355Z 08005KT 17/12 A3035 RMK A01 T01710124  RH  074%=      5-min Rain = 0
KFL1 102356Z 07006KT 17/13 A3035 RMK A01 T01710126  RH  074%=      5-min Rain = 0
KFL1 102357Z 06006KT 17/12 A3035 RMK A01 T01710120  RH  072%=      5-min Rain = 0
KFL1 102358Z 05005KT 17/12 A3034 RMK A01 T01720120  RH  072%=      5-min Rain = 0
KFL1 102359Z 04005KT 17/12 A3034 RMK A01 T01720117  RH  070%=      5-min Rain = 0
KFL1 110000Z 04006KT 17/12 A3034 RMK A01 T01740118  RH  070%=      5-min Rain = 0
KFL1 110001Z 03006KT 18/12 A3034 RMK A01 T01750118  RH  069%=      5-min Rain = 0
KFL1 110002Z 02007KT 18/12 A3033 RMK A01 T01750118  RH  069%=      5-min Rain = 0
KFL1 110003Z 02007KT 18/12 A3033 RMK A01 T01750123  RH  071%=      5-min Rain = 0
KFL1 110004Z 02007KT 18/12 A3033 RMK A01 T01760124  RH  072%=      5-min Rain = 0
KFL1 110005Z 01008KT 18/13 A3033 RMK A01 T01760126  RH  072%=      5-min Rain = 0
KFL1 110006Z 00008KT 18/13 A3033 RMK A01 T01760127  RH  073%=      5-min Rain = 0
KFL1 110007Z 36004KT 18/12 A3033 RMK A01 T01780119  RH  068%=      5-min Rain = 0
KFL1 110008Z 01002KT 18/11 A3033 RMK A01 T01810105  RH  061%=      5-min Rain = 0
KFL1 110009Z 03004KT 19/12 A3033 RMK A01 T01850115  RH  064%=      5-min Rain = 0
KFL1 110010Z 03003KT 18/12 A3033 RMK A01 T01830119  RH  066%=      5-min Rain = 0
KFL1 110011Z 01002KT 18/12 A3033 RMK A01 T01830124  RH  068%=      5-min Rain = 0
KFL1 110012Z 35002KT 18/12 A3033 RMK A01 T01830120  RH  067%=      5-min Rain = 0
KFL1 110013Z 02001KT 18/12 A3033 RMK A01 T01830124  RH  068%=      5-min Rain = 0
KFL1 110014Z 00000KT 18/12 A3033 RMK A01 T01840124  RH  068%=      5-min Rain = 0
KFL1 110015Z 05001KT 18/13 A3033 RMK A01 T01840127  RH  069%=      5-min Rain = 0
KFL1 110016Z 01002KT 18/13 A3033 RMK A01 T01830128  RH  070%=      5-min Rain = 0
KFL1 110017Z 36004KT 18/13 A3033 RMK A01 T01810129  RH  071%=      5-min Rain = 0
KFL1 110018Z 35005KT 18/13 A3033 RMK A01 T01810133  RH  073%=      5-min Rain = 0
KFL1 110019Z 33004KT 18/14 A3033 RMK A01 T01830137  RH  075%=      5-min Rain = 0
KFL1 110020Z 34006KT 18/14 A3033 RMK A01 T01840135  RH  073%=      5-min Rain = 0
KFL1 110021Z 00004KT 19/13 A3033 RMK A01 T01850134  RH  072%=      5-min Rain = 0
KFL1 110022Z 03003KT 18/14 A3033 RMK A01 T01840137  RH  074%=      5-min Rain = 0
KFL1 110023Z 05003KT 19/14 A3033 RMK A01 T01850137  RH  073%=      5-min Rain = 0
KFL1 110024Z 05003KT 18/13 A3033 RMK A01 T01840132  RH  072%=      5-min Rain = 0
KFL1 110025Z 01005KT 19/13 A3033 RMK A01 T01850129  RH  070%=      5-min Rain = 0
KFL1 110026Z 35005KT 18/13 A3033 RMK A01 T01840131  RH  071%=      5-min Rain = 0
KFL1 110027Z 01005KT 19/14 A3033 RMK A01 T01860136  RH  073%=      5-min Rain = 0
KFL1 110028Z 01005KT 19/13 A3033 RMK A01 T01870125  RH  067%=      5-min Rain = 0
KFL1 110029Z 03004KT 19/12 A3033 RMK A01 T01880124  RH  067%=      5-min Rain = 0
KFL1 110030Z 05003KT 19/13 A3033 RMK A01 T01890130  RH  069%=      5-min Rain = 0
KFL1 110031Z 06003KT 19/13 A3033 RMK A01 T01910130  RH  068%=      5-min Rain = 0
KFL1 110032Z 07004KT 19/13 A3033 RMK A01 T01900133  RH  069%=      5-min Rain = 0
KFL1 110033Z 08004KT 19/13 A3033 RMK A01 T01880130  RH  069%=      5-min Rain = 0
KFL1 110034Z 08004KT 19/13 A3033 RMK A01 T01880130  RH  069%=      5-min Rain = 0
KFL1 110035Z 08004KT 19/13 A3033 RMK A01 T01880131  RH  070%=      5-min Rain = 0
KFL1 110036Z 09004KT 19/13 A3033 RMK A01 T01880134  RH  071%=      5-min Rain = 0
KFL1 110037Z 09005KT 19/13 A3033 RMK A01 T01880134  RH  071%=      5-min Rain = 0
KFL1 110038Z 09006KT 19/12 A3033 RMK A01 T01870124  RH  066%=      5-min Rain = 0
KFL1 110039Z 09007KT 19/13 A3033 RMK A01 T01870127  RH  068%=      5-min Rain = 0
KFL1 110040Z 08005KT 19/12 A3033 RMK A01 T01870124  RH  067%=      5-min Rain = 0
KFL1 110041Z 07005KT 19/12 A3033 RMK A01 T01870124  RH  067%=      5-min Rain = 0
KFL1 110042Z 06004KT 19/12 A3033 RMK A01 T01880115  RH  063%=      5-min Rain = 0
KFL1 110043Z 07003KT 19/11 A3033 RMK A01 T01870114  RH  062%=      5-min Rain = 0
KFL1 110044Z 06003KT 19/11 A3033 RMK A01 T01890113  RH  061%=      5-min Rain = 0
KFL1 110045Z 07004KT 19/12 A3033 RMK A01 T01890115  RH  062%=      5-min Rain = 0
KFL1 110046Z 07005KT 19/12 A3033 RMK A01 T01900118  RH  063%=      5-min Rain = 0
KFL1 110047Z 07005KT 19/12 A3033 RMK A01 T01900118  RH  063%=      5-min Rain = 0
KFL1 110048Z 07005KT 19/12 A3033 RMK A01 T01910116  RH  062%=      5-min Rain = 0
KFL1 110049Z 07005KT 19/12 A3033 RMK A01 T01920116  RH  062%=      5-min Rain = 0
KFL1 110050Z 07004KT 19/12 A3033 RMK A01 T01920119  RH  062%=      5-min Rain = 0
KFL1 110051Z 06004KT 19/12 A3033 RMK A01 T01920117  RH  062%=      5-min Rain = 0
KFL1 110052Z 05003KT 19/11 A3033 RMK A01 T01910113  RH  061%=      5-min Rain = 0
KFL1 110053Z 05003KT 19/12 A3033 RMK A01 T01920116  RH  061%=      5-min Rain = 0
KFL1 110054Z 06004KT 19/11 A3033 RMK A01 T01920114  RH  061%=      5-min Rain = 0
KFL1 110055Z 05003KT 19/11 A3033 RMK A01 T01920114  RH  060%=      5-min Rain = 0
KFL1 110056Z 05004KT 19/12 A3033 RMK A01 T01930118  RH  062%=      5-min Rain = 0
KFL1 110057Z 05004KT 19/12 A3033 RMK A01 T01930115  RH  061%=      5-min Rain = 0
KFL1 110058Z 06003KT 19/12 A3033 RMK A01 T01930115  RH  061%=      5-min Rain = 0
KFL1 110059Z 05003KT 19/12 A3033 RMK A01 T01940117  RH  061%=      5-min Rain = 0
KFL1 110100Z 06003KT 19/12 A3033 RMK A01 T01930118  RH  062%=      5-min Rain = 0
KFL1 110101Z 06004KT 19/12 A3033 RMK A01 T01940118  RH  061%=      5-min Rain = 0
KFL1 110102Z 05003KT 19/12 A3033 RMK A01 T01930118  RH  062%=      5-min Rain = 0
KFL1 110103Z 06003KT 19/12 A3033 RMK A01 T01930120  RH  063%=      5-min Rain = 0
KFL1 110104Z 06003KT 19/12 A3033 RMK A01 T01930120  RH  062%=      5-min Rain = 0
KFL1 110105Z 07002KT 19/12 A3033 RMK A01 T01940118  RH  061%=      5-min Rain = 0
KFL1 110106Z 06003KT 19/12 A3033 RMK A01 T01930121  RH  063%=      5-min Rain = 0
KFL1 110107Z 06004KT 19/12 A3033 RMK A01 T01930121  RH  063%=      5-min Rain = 0
KFL1 110108Z 05003KT 19/12 A3032 RMK A01 T01930120  RH  063%=      5-min Rain = 0
KFL1 110109Z 06003KT 19/12 A3032 RMK A01 T01940121  RH  062%=      5-min Rain = 0
KFL1 110110Z 06003KT 19/12 A3032 RMK A01 T01940121  RH  063%=      5-min Rain = 0
KFL1 110111Z 05002KT 19/13 A3032 RMK A01 T01940126  RH  065%=      5-min Rain = 0
KFL1 110112Z 04002KT 19/12 A3032 RMK A01 T01940124  RH  064%=      5-min Rain = 0
KFL1 110113Z 05002KT 20/12 A3032 RMK A01 T01950123  RH  063%=      5-min Rain = 0
KFL1 110114Z 06002KT 20/12 A3032 RMK A01 T01950122  RH  063%=      5-min Rain = 0
KFL1 110115Z 04003KT 19/13 A3033 RMK A01 T01940128  RH  065%=      5-min Rain = 0
KFL1 110116Z 03003KT 20/13 A3033 RMK A01 T01960127  RH  064%=      5-min Rain = 0
KFL1 110117Z 05003KT 19/12 A3033 RMK A01 T01940122  RH  063%=      5-min Rain = 0
KFL1 110118Z 05003KT 19/12 A3033 RMK A01 T01940122  RH  063%=      5-min Rain = 0
KFL1 110119Z 04003KT 20/13 A3033 RMK A01 T01960125  RH  064%=      5-min Rain = 0
KFL1 110120Z 03003KT 19/13 A3033 RMK A01 T01940125  RH  064%=      5-min Rain = 0
KFL1 110121Z 03004KT 20/12 A3033 RMK A01 T01950123  RH  063%=      5-min Rain = 0
KFL1 110122Z 03004KT 20/12 A3033 RMK A01 T01960121  RH  062%=      5-min Rain = 0
KFL1 110123Z 04004KT 20/12 A3033 RMK A01 T01960122  RH  062%=      5-min Rain = 0
KFL1 110124Z 04004KT 20/12 A3033 RMK A01 T01960123  RH  062%=      5-min Rain = 0
KFL1 110125Z 02004KT 20/12 A3033 RMK A01 T01970122  RH  062%=      5-min Rain = 0
KFL1 110126Z 02003KT 20/12 A3033 RMK A01 T01980124  RH  062%=      5-min Rain = 0
KFL1 110127Z 02003KT 20/13 A3033 RMK A01 T02000125  RH  062%=      5-min Rain = 0
KFL1 110128Z 04004KT 20/12 A3033 RMK A01 T02000122  RH  061%=      5-min Rain = 0
KFL1 110129Z 04004KT 20/12 A3033 RMK A01 T02000124  RH  062%=      5-min Rain = 0
KFL1 110130Z 05003KT 20/12 A3033 RMK A01 T02000124  RH  062%=      5-min Rain = 0
KFL1 110131Z 05003KT 20/13 A3033 RMK A01 T01990126  RH  062%=      5-min Rain = 0
KFL1 110132Z 04002KT 20/13 A3033 RMK A01 T02000128  RH  063%=      5-min Rain = 0
KFL1 110133Z 06003KT 20/13 A3033 RMK A01 T01990125  RH  062%=      5-min Rain = 0
KFL1 110134Z 06002KT 20/13 A3033 RMK A01 T01990129  RH  064%=      5-min Rain = 0
KFL1 110135Z 07002KT 20/13 A3033 RMK A01 T01990131  RH  065%=      5-min Rain = 0
KFL1 110136Z 07002KT 20/13 A3033 RMK A01 T01990132  RH  065%=      5-min Rain = 0
KFL1 110137Z 09003KT 20/13 A3033 RMK A01 T01980130  RH  065%=      5-min Rain = 0
KFL1 110138Z 10002KT 20/13 A3033 RMK A01 T01990131  RH  065%=      5-min Rain = 0
KFL1 110139Z 09002KT 20/13 A3033 RMK A01 T01980130  RH  064%=      5-min Rain = 0
KFL1 110140Z 09003KT 20/13 A3033 RMK A01 T01970129  RH  065%=      5-min Rain = 0
KFL1 110141Z 09003KT 20/12 A3033 RMK A01 T01960124  RH  063%=      5-min Rain = 0
KFL1 110142Z 09003KT 20/12 A3033 RMK A01 T01960124  RH  063%=      5-min Rain = 0
KFL1 110143Z 09002KT 20/12 A3033 RMK A01 T01950119  RH  061%=      5-min Rain = 0
KFL1 110144Z 09002KT 20/12 A3033 RMK A01 T01950117  RH  061%=      5-min Rain = 0
KFL1 110145Z 08002KT 20/12 A3033 RMK A01 T01950118  RH  061%=      5-min Rain = 0
KFL1 110146Z 07003KT 20/12 A3033 RMK A01 T01960117  RH  060%=      5-min Rain = 0
KFL1 110147Z 06003KT 20/12 A3033 RMK A01 T01960117  RH  061%=      5-min Rain = 0
KFL1 110148Z 06003KT 19/12 A3033 RMK A01 T01940117  RH  061%=      5-min Rain = 0
KFL1 110149Z 06004KT 20/12 A3033 RMK A01 T01960117  RH  060%=      5-min Rain = 0
KFL1 110150Z 05005KT 20/12 A3033 RMK A01 T01950115  RH  060%=      5-min Rain = 0
KFL1 110151Z 04004KT 20/12 A3033 RMK A01 T01960115  RH  059%=      5-min Rain = 0
KFL1 110152Z 04004KT 19/11 A3033 RMK A01 T01940112  RH  059%=      5-min Rain = 0
KFL1 110153Z 03005KT 20/11 A3033 RMK A01 T01960112  RH  058%=      5-min Rain = 0
KFL1 110154Z 02004KT 20/11 A3033 RMK A01 T01960113  RH  059%=      5-min Rain = 0
KFL1 110155Z 01005KT 20/11 A3033 RMK A01 T01960112  RH  058%=      5-min Rain = 0
KFL1 110156Z 01005KT 20/12 A3033 RMK A01 T01960115  RH  059%=      5-min Rain = 0
KFL1 110157Z 01005KT 20/11 A3033 RMK A01 T01950108  RH  057%=      5-min Rain = 0
KFL1 110158Z 01005KT 20/12 A3033 RMK A01 T01960120  RH  061%=      5-min Rain = 0
KFL1 110159Z 01005KT 19/12 A3033 RMK A01 T01940116  RH  061%=      5-min Rain = 0
KFL1 110200Z 01005KT 19/12 A3033 RMK A01 T01930117  RH  062%=      5-min Rain = 0
KFL1 110201Z 01005KT 19/12 A3033 RMK A01 T01920121  RH  064%=      5-min Rain = 0
KFL1 110202Z 02004KT 19/12 A3033 RMK A01 T01900122  RH  064%=      5-min Rain = 0
KFL1 110203Z 03004KT 19/12 A3033 RMK A01 T01890124  RH  066%=      5-min Rain = 0
KFL1 110204Z 03004KT 19/12 A3033 RMK A01 T01860122  RH  066%=      5-min Rain = 0
KFL1 110205Z 03005KT 19/11 A3033 RMK A01 T01870113  RH  062%=      5-min Rain = 0
KFL1 110206Z 03005KT 19/11 A3033 RMK A01 T01870111  RH  061%=      5-min Rain = 0
KFL1 110207Z 03005KT 19/11 A3033 RMK A01 T01880110  RH  060%=      5-min Rain = 0
KFL1 110208Z 03005KT 19/11 A3033 RMK A01 T01870106  RH  059%=      5-min Rain = 0
KFL1 110209Z 04005KT 19/11 A3033 RMK A01 T01880105  RH  058%=      5-min Rain = 0
KFL1 110210Z 05005KT 19/11 A3033 RMK A01 T01870109  RH  060%=      5-min Rain = 0
KFL1 110211Z 05006KT 19/11 A3033 RMK A01 T01850113  RH  063%=      5-min Rain = 0
KFL1 110212Z 05006KT 18/12 A3033 RMK A01 T01840115  RH  064%=      5-min Rain = 0
KFL1 110213Z 05007KT 18/11 A3033 RMK A01 T01820114  RH  065%=      5-min Rain = 0
KFL1 110214Z 05007KT 18/12 A3033 RMK A01 T01800115  RH  066%=      5-min Rain = 0
KFL1 110215Z 05008KT 18/12 A3034 RMK A01 T01790115  RH  066%=      5-min Rain = 0
KFL1 110216Z 05008KT 18/11 A3034 RMK A01 T01770114  RH  066%=      5-min Rain = 0
KFL1 110217Z 05007KT 18/12 A3034 RMK A01 T01770116  RH  067%=      5-min Rain = 0
KFL1 110218Z 05007KT 18/12 A3034 RMK A01 T01770116  RH  068%=      5-min Rain = 0
KFL1 110219Z 05008KT 18/11 A3034 RMK A01 T01750114  RH  068%=      5-min Rain = 0
KFL1 110220Z 05007KT 17/11 A3034 RMK A01 T01740113  RH  067%=      5-min Rain = 0
KFL1 110221Z 05006KT 17/11 A3034 RMK A01 T01740111  RH  067%=      5-min Rain = 0
KFL1 110222Z 05007KT 17/11 A3034 RMK A01 T01730111  RH  067%=      5-min Rain = 0
KFL1 110223Z 05008KT 17/11 A3034 RMK A01 T01730110  RH  066%=      5-min Rain = 0
KFL1 110224Z 05009KT 17/11 A3034 RMK A01 T01740108  RH  065%=      5-min Rain = 0
KFL1 110225Z 05009KT 18/11 A3035 RMK A01 T01760107  RH  064%=      5-min Rain = 0
KFL1 110226Z 04008KT 18/11 A3035 RMK A01 T01760106  RH  063%=      5-min Rain = 0
KFL1 110227Z 04009KT 18/11 A3035 RMK A01 T01760105  RH  063%=      5-min Rain = 0
KFL1 110228Z 04008KT 18/11 A3035 RMK A01 T01750105  RH  063%=      5-min Rain = 0
KFL1 110229Z 04007KT 18/11 A3035 RMK A01 T01760105  RH  063%=      5-min Rain = 0
KFL1 110230Z 04007KT 18/11 A3035 RMK A01 T01770105  RH  063%=      5-min Rain = 0
KFL1 110231Z 05007KT 18/11 A3035 RMK A01 T01770106  RH  063%=      5-min Rain = 0
KFL1 110232Z 05008KT 18/11 A3035 RMK A01 T01760106  RH  063%=      5-min Rain = 0
KFL1 110233Z 04008KT 18/11 A3035 RMK A01 T01770106  RH  063%=      5-min Rain = 0
KFL1 110234Z 04008KT 18/10 A3035 RMK A01 T01760104  RH  063%=      5-min Rain = 0
KFL1 110235Z 04007KT 18/10 A3035 RMK A01 T01770103  RH  062%=      5-min Rain = 0
KFL1 110236Z 04007KT 18/10 A3035 RMK A01 T01770102  RH  061%=      5-min Rain = 0
KFL1 110237Z 04007KT 18/10 A3035 RMK A01 T01780101  RH  061%=      5-min Rain = 0
KFL1 110238Z 04009KT 18/10 A3035 RMK A01 T01790101  RH  060%=      5-min Rain = 0
KFL1 110239Z 04008KT 18/10 A3035 RMK A01 T01780100  RH  060%=      5-min Rain = 0
KFL1 110240Z 04008KT 18/10 A3035 RMK A01 T01780102  RH  061%=      5-min Rain = 0
KFL1 110241Z 05009KT 18/10 A3035 RMK A01 T01780102  RH  061%=      5-min Rain = 0
KFL1 110242Z 05009KT 18/10 A3035 RMK A01 T01770100  RH  061%=      5-min Rain = 0
KFL1 110243Z 04009KT 18/10 A3035 RMK A01 T01770101  RH  061%=      5-min Rain = 0
KFL1 110244Z 04008KT 18/10 A3035 RMK A01 T01760100  RH  061%=      5-min Rain = 0
KFL1 110245Z 04009KT 18/10 A3035 RMK A01 T01760100  RH  061%=      5-min Rain = 0
KFL1 110246Z 04009KT 18/10 A3035 RMK A01 T01750099  RH  061%=      5-min Rain = 0
KFL1 110247Z 04009KT 18/10 A3035 RMK A01 T01750099  RH  061%=      5-min Rain = 0
KFL1 110248Z 04008KT 18/10 A3035 RMK A01 T01760099  RH  061%=      5-min Rain = 0
KFL1 110249Z 04008KT 18/10 A3034 RMK A01 T01750098  RH  060%=      5-min Rain = 0
KFL1 110250Z 04007KT 18/10 A3034 RMK A01 T01760098  RH  060%=      5-min Rain = 0
KFL1 110251Z 03007KT 18/10 A3034 RMK A01 T01760097  RH  060%=      5-min Rain = 0
KFL1 110252Z 04008KT 18/10 A3034 RMK A01 T01770097  RH  060%=      5-min Rain = 0
KFL1 110253Z 04008KT 18/10 A3034 RMK A01 T01760097  RH  060%=      5-min Rain = 0
KFL1 110254Z 04007KT 18/10 A3034 RMK A01 T01760098  RH  060%=      5-min Rain = 0
KFL1 110255Z 04008KT 18/10 A3034 RMK A01 T01750098  RH  060%=      5-min Rain = 0
KFL1 110256Z 03007KT 18/10 A3034 RMK A01 T01750098  RH  061%=      5-min Rain = 0
KFL1 110257Z 03008KT 17/10 A3034 RMK A01 T01740098  RH  061%=      5-min Rain = 0
KFL1 110258Z 03007KT 18/10 A3034 RMK A01 T01750099  RH  061%=      5-min Rain = 0
KFL1 110259Z 03007KT 17/10 A3034 RMK A01 T01740097  RH  060%=      5-min Rain = 0
KFL1 110300Z 03006KT 17/10 A3034 RMK A01 T01740096  RH  060%=      5-min Rain = 0
KFL1 110301Z 03006KT 17/10 A3034 RMK A01 T01740097  RH  060%=      5-min Rain = 0
KFL1 110302Z 04006KT 17/10 A3034 RMK A01 T01740097  RH  061%=      5-min Rain = 0
KFL1 110303Z 03006KT 17/10 A3034 RMK A01 T01740098  RH  061%=      5-min Rain = 0
KFL1 110304Z 04006KT 17/10 A3034 RMK A01 T01730098  RH  061%=      5-min Rain = 0
KFL1 110305Z 04006KT 17/10 A3034 RMK A01 T01720098  RH  062%=      5-min Rain = 0
KFL1 110306Z 04007KT 17/10 A3034 RMK A01 T01720098  RH  062%=      5-min Rain = 0
KFL1 110307Z 04007KT 17/10 A3034 RMK A01 T01720099  RH  062%=      5-min Rain = 0
KFL1 110308Z 04008KT 17/10 A3034 RMK A01 T01710098  RH  062%=      5-min Rain = 0
KFL1 110309Z 04008KT 17/10 A3034 RMK A01 T01700096  RH  062%=      5-min Rain = 0
KFL1 110310Z 03007KT 17/09 A3034 RMK A01 T01700094  RH  061%=      5-min Rain = 0
KFL1 110311Z 04007KT 17/10 A3034 RMK A01 T01720095  RH  060%=      5-min Rain = 0
KFL1 110312Z 03007KT 17/09 A3034 RMK A01 T01720094  RH  060%=      5-min Rain = 0
KFL1 110313Z 03007KT 17/09 A3034 RMK A01 T01720093  RH  060%=      5-min Rain = 0
KFL1 110314Z 03007KT 17/09 A3034 RMK A01 T01730093  RH  059%=      5-min Rain = 0
KFL1 110315Z 02008KT 17/09 A3034 RMK A01 T01730093  RH  059%=      5-min Rain = 0
KFL1 110316Z 02009KT 17/09 A3034 RMK A01 T01740094  RH  060%=      5-min Rain = 0
KFL1 110317Z 02008KT 18/10 A3034 RMK A01 T01750099  RH  061%=      5-min Rain = 0
KFL1 110318Z 02008KT 17/10 A3034 RMK A01 T01710101  RH  063%=      5-min Rain = 0
KFL1 110319Z 01008KT 17/10 A3035 RMK A01 T01680102  RH  065%=      5-min Rain = 0
KFL1 110320Z 01008KT 16/10 A3035 RMK A01 T01640101  RH  066%=      5-min Rain = 0
KFL1 110321Z 01009KT 16/10 A3035 RMK A01 T01620102  RH  068%=      5-min Rain = 0
KFL1 110322Z 00009KT 16/10 A3035 RMK A01 T01590102  RH  069%=      5-min Rain = 0
KFL1 110323Z 00009KT 16/10 A3034 RMK A01 T01570103  RH  070%=      5-min Rain = 0
KFL1 110324Z 00009KT 16/10 A3035 RMK A01 T01570104  RH  071%=      5-min Rain = 0
KFL1 110325Z 00008KT 15/10 A3035 RMK A01 T01540101  RH  071%=      5-min Rain = 0
KFL1 110326Z 00008KT 15/10 A3035 RMK A01 T01540102  RH  071%=      5-min Rain = 0
KFL1 110327Z 00008KT 15/10 A3035 RMK A01 T01540103  RH  072%=      5-min Rain = 0
KFL1 110328Z 00007KT 15/10 A3035 RMK A01 T01510102  RH  073%=      5-min Rain = 0
KFL1 110329Z 36006KT 15/10 A3035 RMK A01 T01500103  RH  073%=      5-min Rain = 0
KFL1 110330Z 01005KT 15/10 A3035 RMK A01 T01500103  RH  073%=      5-min Rain = 0
KFL1 110331Z 03004KT 15/10 A3035 RMK A01 T01490096  RH  071%=      5-min Rain = 0
KFL1 110332Z 03005KT 15/09 A3035 RMK A01 T01510094  RH  069%=      5-min Rain = 0
KFL1 110333Z 03005KT 16/09 A3035 RMK A01 T01550093  RH  066%=      5-min Rain = 0
KFL1 110334Z 03004KT 16/09 A3035 RMK A01 T01570092  RH  066%=      5-min Rain = 0
KFL1 110335Z 03004KT 16/09 A3035 RMK A01 T01590094  RH  065%=      5-min Rain = 0
KFL1 110336Z 04005KT 16/09 A3036 RMK A01 T01590093  RH  065%=      5-min Rain = 0
KFL1 110337Z 04005KT 16/09 A3036 RMK A01 T01600094  RH  065%=      5-min Rain = 0
KFL1 110338Z 04006KT 16/09 A3036 RMK A01 T01600093  RH  065%=      5-min Rain = 0
KFL1 110339Z 04007KT 16/10 A3036 RMK A01 T01610095  RH  065%=      5-min Rain = 0
KFL1 110340Z 04007KT 16/10 A3036 RMK A01 T01600095  RH  065%=      5-min Rain = 0
KFL1 110341Z 04006KT 16/10 A3036 RMK A01 T01600095  RH  065%=      5-min Rain = 0
KFL1 110342Z 04005KT 16/10 A3036 RMK A01 T01610096  RH  066%=      5-min Rain = 0
KFL1 110343Z 05002KT 16/10 A3036 RMK A01 T01600096  RH  066%=      5-min Rain = 0
KFL1 110344Z 10002KT 16/10 A3036 RMK A01 T01590098  RH  067%=      5-min Rain = 0
KFL1 110345Z 09002KT 16/10 A3036 RMK A01 T01580098  RH  067%=      5-min Rain = 0
KFL1 110346Z 06003KT 16/10 A3036 RMK A01 T01570097  RH  068%=      5-min Rain = 0
KFL1 110347Z 04003KT 16/10 A3036 RMK A01 T01560098  RH  068%=      5-min Rain = 0
KFL1 110348Z 02003KT 15/10 A3036 RMK A01 T01540102  RH  071%=      5-min Rain = 0
KFL1 110349Z 01003KT 15/10 A3036 RMK A01 T01520101  RH  072%=      5-min Rain = 0
KFL1 110350Z 02002KT 15/10 A3037 RMK A01 T01500102  RH  073%=      5-min Rain = 0
KFL1 110351Z 18004KT 15/10 A3037 RMK A01 T01490100  RH  073%=      5-min Rain = 0
KFL1 110352Z 21007KT 15/10 A3037 RMK A01 T01480100  RH  073%=      5-min Rain = 0
KFL1 110353Z 23007KT 15/10 A3038 RMK A01 T01470098  RH  073%=      5-min Rain = 0
KFL1 110354Z 20005KT 15/10 A3038 RMK A01 T01470098  RH  072%=      5-min Rain = 0
KFL1 110355Z 17005KT 15/09 A3038 RMK A01 T01480091  RH  069%=      5-min Rain = 0
KFL1 110356Z 18003KT 15/09 A3038 RMK A01 T01520092  RH  067%=      5-min Rain = 0
KFL1 110357Z 18003KT 16/09 A3038 RMK A01 T01550088  RH  064%=      5-min Rain = 0
KFL1 110358Z 20003KT 16/09 A3038 RMK A01 T01570088  RH  063%=      5-min Rain = 0
KFL1 110359Z 21004KT 16/09 A3038 RMK A01 T01570087  RH  063%=      5-min Rain = 0
KFL1 110400Z 22003KT 16/09 A3038 RMK A01 T01580086  RH  062%=      5-min Rain = 0
KFL1 110401Z 21003KT 16/09 A3038 RMK A01 T01590085  RH  061%=      5-min Rain = 0
KFL1 110402Z 22003KT 16/09 A3038 RMK A01 T01620085  RH  060%=      5-min Rain = 0
KFL1 110403Z 21003KT 17/09 A3038 RMK A01 T01650085  RH  059%=      5-min Rain = 0
KFL1 110404Z 19002KT 17/09 A3038 RMK A01 T01680087  RH  059%=      5-min Rain = 0
KFL1 110405Z 17002KT 17/09 A3038 RMK A01 T01690086  RH  058%=      5-min Rain = 0
KFL1 110406Z 13002KT 17/08 A3038 RMK A01 T01700084  RH  057%=      5-min Rain = 0
KFL1 110407Z 12002KT 17/08 A3038 RMK A01 T01720084  RH  056%=      5-min Rain = 0
KFL1 110408Z 09002KT 17/08 A3038 RMK A01 T01730083  RH  055%=      5-min Rain = 0
KFL1 110409Z 07002KT 18/08 A3038 RMK A01 T01750084  RH  055%=      5-min Rain = 0
KFL1 110410Z 06003KT 17/09 A3038 RMK A01 T01740085  RH  056%=      5-min Rain = 0
KFL1 110411Z 05004KT 17/09 A3038 RMK A01 T01730086  RH  057%=      5-min Rain = 0
KFL1 110412Z 05005KT 17/09 A3038 RMK A01 T01730088  RH  057%=      5-min Rain = 0
KFL1 110413Z 05004KT 17/09 A3038 RMK A01 T01710089  RH  058%=      5-min Rain = 0
KFL1 110414Z 05003KT 17/09 A3038 RMK A01 T01690089  RH  059%=      5-min Rain = 0
KFL1 110415Z 04002KT 17/09 A3039 RMK A01 T01680088  RH  059%=      5-min Rain = 0
KFL1 110416Z 03003KT 17/09 A3039 RMK A01 T01660091  RH  061%=      5-min Rain = 0
KFL1 110417Z 01003KT 16/10 A3038 RMK A01 T01640095  RH  064%=      5-min Rain = 0
KFL1 110418Z 02004KT 16/10 A3038 RMK A01 T01570100  RH  069%=      5-min Rain = 0
KFL1 110419Z 02004KT 15/10 A3039 RMK A01 T01500100  RH  072%=      5-min Rain = 0
KFL1 110420Z 00003KT 15/10 A3039 RMK A01 T01460100  RH  074%=      5-min Rain = 0
KFL1 110421Z 35005KT 14/10 A3039 RMK A01 T01440102  RH  076%=      5-min Rain = 0
KFL1 110422Z 35005KT 14/10 A3039 RMK A01 T01440102  RH  076%=      5-min Rain = 0
KFL1 110423Z 35004KT 14/10 A3039 RMK A01 T01420102  RH  077%=      5-min Rain = 0
KFL1 110424Z 36003KT 14/10 A3039 RMK A01 T01420101  RH  077%=      5-min Rain = 0
KFL1 110425Z 00003KT 14/10 A3039 RMK A01 T01420103  RH  077%=      5-min Rain = 0
KFL1 110426Z 36004KT 14/10 A3039 RMK A01 T01400102  RH  078%=      5-min Rain = 0
KFL1 110427Z 00004KT 14/10 A3039 RMK A01 T01400103  RH  078%=      5-min Rain = 0
KFL1 110428Z 01005KT 14/10 A3039 RMK A01 T01390102  RH  078%=      5-min Rain = 0
KFL1 110429Z 01006KT 14/10 A3039 RMK A01 T01400104  RH  079%=      5-min Rain = 0
KFL1 110430Z 01006KT 14/10 A3039 RMK A01 T01380102  RH  079%=      5-min Rain = 0
KFL1 110431Z 00005KT 14/10 A3039 RMK A01 T01380103  RH  079%=      5-min Rain = 0
KFL1 110432Z 00005KT 14/10 A3039 RMK A01 T01380104  RH  079%=      5-min Rain = 0
KFL1 110433Z 00005KT 14/10 A3039 RMK A01 T01370103  RH  080%=      5-min Rain = 0
KFL1 110434Z 00004KT 14/10 A3039 RMK A01 T01370104  RH  080%=      5-min Rain = 0
KFL1 110435Z 00004KT 14/10 A304 RMK A01 T01360104  RH  081%=      5-min Rain = 0
KFL1 110436Z 01003KT 14/10 A304 RMK A01 T01350102  RH  080%=      5-min Rain = 0
KFL1 110437Z 02002KT 14/10 A304 RMK A01 T01360103  RH  080%=      5-min Rain = 0
KFL1 110438Z 00003KT 14/10 A304 RMK A01 T01360102  RH  080%=      5-min Rain = 0
KFL1 110439Z 01003KT 14/10 A304 RMK A01 T01370102  RH  079%=      5-min Rain = 0
KFL1 110440Z 02002KT 14/10 A304 RMK A01 T01390099  RH  077%=      5-min Rain = 0
KFL1 110441Z 03002KT 14/10 A304 RMK A01 T01430100  RH  075%=      5-min Rain = 0
KFL1 110442Z 06002KT 14/10 A304 RMK A01 T01430102  RH  076%=      5-min Rain = 0
KFL1 110443Z 11001KT 14/10 A304 RMK A01 T01440100  RH  075%=      5-min Rain = 0
KFL1 110444Z 05001KT 15/10 A304 RMK A01 T01450097  RH  073%=      5-min Rain = 0
KFL1 110445Z 05001KT 15/10 A304 RMK A01 T01470097  RH  072%=      5-min Rain = 0
KFL1 110446Z 09001KT 15/10 A304 RMK A01 T01480101  RH  073%=      5-min Rain = 0
KFL1 110447Z 06003KT 15/10 A304 RMK A01 T01480097  RH  071%=      5-min Rain = 0
KFL1 110448Z 05005KT 15/10 A304 RMK A01 T01490095  RH  070%=      5-min Rain = 0
KFL1 110449Z 05004KT 15/09 A304 RMK A01 T01490094  RH  070%=      5-min Rain = 0
KFL1 110450Z 05004KT 15/09 A304 RMK A01 T01500093  RH  069%=      5-min Rain = 0
KFL1 110451Z 04004KT 15/09 A304 RMK A01 T01520091  RH  067%=      5-min Rain = 0
KFL1 110452Z 05004KT 16/09 A304 RMK A01 T01550094  RH  067%=      5-min Rain = 0
KFL1 110453Z 04004KT 15/10 A304 RMK A01 T01540099  RH  069%=      5-min Rain = 0
KFL1 110454Z 05004KT 15/10 A304 RMK A01 T01520097  RH  069%=      5-min Rain = 0
KFL1 110455Z 05005KT 15/10 A304 RMK A01 T01510095  RH  069%=      5-min Rain = 0
KFL1 110456Z 04005KT 15/09 A304 RMK A01 T01520091  RH  067%=      5-min Rain = 0
KFL1 110457Z 04005KT 16/09 A304 RMK A01 T01550090  RH  065%=      5-min Rain = 0
KFL1 110458Z 04005KT 16/09 A304 RMK A01 T01580091  RH  064%=      5-min Rain = 0
KFL1 110459Z 04005KT 16/09 A304 RMK A01 T01590089  RH  063%=      5-min Rain = 0
KFL1 110500Z 04006KT 16/09 A304 RMK A01 T01610089  RH  062%=      5-min Rain = 0

Page generated in 0.0355 seconds.